Return to Metar
METAR CYNL 251900Z AUTO 32005KT BKN015 OVC052 04/00 A2996 RMK AO1 SLP168
SPECI CYNL 251859Z AUTO 30005KT BKN015 OVC052 04/00 A2996 RMK AO1 SLP168
SPECI CYNL 251857Z AUTO 31006KT BKN014 OVC052 04/00 A2996 RMK AO1 SLP168
SPECI CYNL 251855Z AUTO 31005KT SCT014 OVC052 04/00 A2996 RMK AO1 SLP168
SPECI CYNL 251854Z AUTO 31005KT BKN014 OVC052 04/00 A2996 RMK AO1 SLP168
SPECI CYNL 251811Z AUTO 31005KT FEW010 SCT014 OVC052 03/00 A2997 RMK AO1 SLP170
METAR CYNL 251800Z AUTO 30005KT SCT010 BKN014 OVC052 03/01 A2997 RMK AO1 SLP170
SPECI CYNL 251712Z AUTO 31006KT SCT009 BKN014 OVC052 03/01 A2997 RMK AO1 SLP172
SPECI CYNL 251709Z AUTO 31005KT BKN009 OVC052 03/01 A2997 RMK AO1 SLP172
SPECI CYNL 251703Z AUTO 30005KT SCT009 BKN013 OVC052 03/01 A2997 RMK AO1 SLP172
SPECI CYNL 251702Z AUTO 30005KT BKN009 OVC052 03/01 A2997 RMK AO1 SLP172
METAR CYNL 251700Z AUTO 31005KT SCT009 BKN013 OVC052 03/01 A2997 RMK AO1 SLP172
SPECI CYNL 251657Z AUTO 32004KT SCT009 BKN013 OVC052 03/01 A2997 RMK AO1 SLP172
SPECI CYNL 251651Z AUTO 30005KT BKN009 BKN014 OVC052 02/01 A2997 RMK AO1 SLP172
SPECI CYNL 251645Z AUTO 30005KT SCT009 BKN012 BKN014 02/01 A2997 RMK AO1 SLP172
SPECI CYNL 251642Z AUTO 30006KT BKN008 BKN013 OVC052 02/01 A2997 RMK AO1 SLP172
SPECI CYNL 251640Z AUTO 32004KT SCT008 BKN013 OVC052 02/01 A2997 RMK AO1 SLP172
METAR CYNL 251600Z AUTO 32005KT BKN009 OVC052 02/01 A2997 RMK AO1 SLP171
SPECI CYNL 251547Z AUTO 33003KT BKN008 OVC052 02/01 A2997 RMK AO1 SLP171
SPECI CYNL 251545Z AUTO 32003KT SCT008 BKN010 OVC052 02/01 A2997 RMK AO1 SLP171
SPECI CYNL 251544Z AUTO 32003KT BKN008 BKN010 OVC052 02/01 A2997 RMK AO1 SLP171
SPECI CYNL 251543Z AUTO 33004KT SCT008 BKN010 OVC052 02/01 A2997 RMK AO1 SLP171
SPECI CYNL 251508Z AUTO 32004KT BKN008 OVC054 02/00 A2996 RMK AO1 SLP169
SPECI CYNL 251502Z AUTO 32005KT FEW007 SCT009 OVC054 02/00 A2996 RMK AO1 SLP169
SPECI CYNL 251501Z AUTO 32005KT BKN008 OVC054 02/00 A2996 RMK AO1 SLP169
METAR CYNL 251500Z AUTO 32005KT SCT008 OVC054 02/00 A2996 RMK AO1 SLP169
SPECI CYNL 251459Z AUTO 32006KT SCT008 OVC054 02/00 A2996 RMK AO1 SLP169
SPECI CYNL 251452Z AUTO 32005KT FEW005 BKN008 OVC054 01/00 A2996 RMK AO1 SLP169
SPECI CYNL 251450Z AUTO 32005KT SCT005 OVC054 01/00 A2996 RMK AO1 SLP169
SPECI CYNL 251448Z AUTO 31006KT BKN006 OVC054 01/00 A2996 RMK AO1 SLP169
SPECI CYNL 251447Z AUTO 32004KT SCT006 OVC054 01/00 A2996 RMK AO1 SLP168
METAR CYNL 251400Z AUTO 33005KT BKN006 OVC056 01/M00 A2995 RMK AO1 SLP167
SPECI CYNL 251357Z AUTO 33005KT BKN007 OVC056 01/M00 A2995 RMK AO1 SLP166
SPECI CYNL 251355Z AUTO 34007KT SCT007 BKN010 OVC056 01/M00 A2995 RMK AO1 SLP167
SPECI CYNL 251353Z AUTO 34007KT SCT007 BKN009 OVC056 01/M00 A2995 RMK AO1 SLP167
SPECI CYNL 251325Z AUTO 34009KT SCT008 OVC010 01/M00 A2994 RMK AO1 SLP165
SPECI CYNL 251321Z AUTO 33007KT BKN008 OVC010 01/M00 A2994 RMK AO1 SLP164
SPECI CYNL 251320Z AUTO 33008KT SCT008 OVC010 01/M00 A2994 RMK AO1 SLP164
METAR CYNL 251300Z AUTO 33008KT BKN007 BKN009 OVC013 01/M00 A2994 RMK AO1 SLP162
SPECI CYNL 251244Z AUTO 34006KT BKN007 OVC013 01/M00 A2993 RMK AO1 SLP160
SPECI CYNL 251243Z AUTO 34007KT SCT007 BKN010 OVC013 01/M00 A2993 RMK AO1 SLP160
SPECI CYNL 251220Z AUTO 33007KT SCT006 BKN009 BKN012 01/M00 A2993 RMK AO1 SLP159
SPECI CYNL 251218Z AUTO 33006KT SCT006 BKN010 BKN012 01/M00 A2993 RMK AO1 SLP159
SPECI CYNL 251203Z AUTO 33005KT BKN008 BKN018 01/M00 A2992 RMK AO1 SLP158
METAR CYNL 251200Z AUTO 33005KT SCT008 BKN012 BKN017 01/M00 A2992 RMK AO1 SLP157
SPECI CYNL 251153Z AUTO 33006KT SCT008 BKN019 01/M01 A2992 RMK AO1 SLP156
METAR CYNL 251100Z AUTO 33006KT BKN008 OVC011 01/M00 A2991 RMK AO1 SLP153
SPECI CYNL 251024Z AUTO 33007KT BKN007 OVC012 01/M00 A2991 RMK AO1 SLP151
METAR CYNL 251000Z AUTO 33006KT FEW006 BKN011 BKN014 01/M00 A2991 RMK AO1 SLP150
SPECI CYNL 250940Z AUTO 33007KT FEW007 SCT009 BKN011 01/M00 A2990 RMK AO1 SLP149
SPECI CYNL 250938Z AUTO 33006KT SCT007 BKN009 01/M00 A2990 RMK AO1 SLP149
SPECI CYNL 250937Z AUTO 34006KT SCT007 BKN010 01/M00 A2990 RMK AO1 SLP148
METAR CYNL 250900Z AUTO 33007KT SCT006 OVC008 01/00 A2990 RMK AO1 SLP147
METAR CYNL 250800Z AUTO 33007KT OVC006 01/01 A2988 RMK AO1 SLP141
METAR CYNL 250700Z AUTO 33005KT BKN006 OVC058 02/01 A2987 RMK AO1 SLP139
SPECI CYNL 250654Z AUTO 32005KT BKN006 OVC058 02/01 A2987 RMK AO1 SLP139
METAR CYNL 250600Z AUTO 31006KT SCT007 OVC056 02/01 A2987 RMK AO1 SLP138
SPECI CYNL 250552Z AUTO 31005KT SCT007 OVC054 02/01 A2987 RMK AO1 SLP138
SPECI CYNL 250540Z AUTO 32005KT BKN007 BKN052 02/01 A2987 RMK AO1 SLP137
SPECI CYNL 250515Z AUTO 32004KT FEW007 BKN054 02/01 A2987 RMK AO1 SLP137
METAR CYNL 250500Z AUTO 32004KT FEW019 OVC056 02/01 A2987 RMK AO1 SLP136
SPECI CYNL 250413Z AUTO 31005KT FEW007 OVC050 02/01 A2986 RMK AO1 SLP135
METAR CYNL 250400Z AUTO 32004KT SCT025 OVC046 02/01 A2986 RMK AO1 SLP134
METAR CYNL 250300Z AUTO 32005KT FEW029 SCT035 02/01 A2985 RMK AO1 SLP133
SPECI CYNL 250248Z AUTO 33004KT SCT006 BKN035 02/01 A2985 RMK AO1 SLP133
SPECI CYNL 250247Z AUTO 32005KT SCT006 BKN028 BKN035 02/01 A2985 RMK AO1 SLP133
SPECI CYNL 250241Z AUTO 32004KT SCT006 OVC035 02/01 A2985 RMK AO1 SLP132
SPECI CYNL 250240Z AUTO 32004KT SCT006 BKN012 OVC035 02/01 A2985 RMK AO1 SLP132
METAR CYNL 250200Z AUTO 32004KT BKN007 02/01 A2984 RMK AO1 SLP130
SPECI CYNL 250158Z AUTO 33005KT SCT007 BKN016 02/01 A2984 RMK AO1 SLP131
SPECI CYNL 250156Z AUTO 32006KT SCT007 02/01 A2984 RMK AO1 SLP130
SPECI CYNL 250155Z AUTO 32005KT BKN007 02/01 A2984 RMK AO1 SLP130
SPECI CYNL 250143Z AUTO 33004KT FEW007 02/01 A2984 RMK AO1 SLP129
METAR CYNL 250100Z AUTO 34002KT CLR 03/01 A2983 RMK AO1 SLP126
SPECI CYNL 250024Z AUTO 33002KT FEW009 SCT017 03/02 A2982 RMK AO1 SLP122
SPECI CYNL 250010Z AUTO 33003KT SCT008 BKN016 03/02 A2982 RMK AO1 SLP121
SPECI CYNL 250009Z AUTO 34002KT SCT008 BKN014 BKN017 03/02 A2982 RMK AO1 SLP121
METAR CYNL 250000Z AUTO 35003KT SCT008 BKN016 03/02 A2981 RMK AO1 SLP119
SPECI CYNL 242345Z AUTO 34002KT FEW005 SCT008 BKN015 03/02 A2981 RMK AO1 SLP118
SPECI CYNL 242339Z AUTO 00000KT FEW005 SCT007 BKN014 03/02 A2981 RMK AO1 SLP118
SPECI CYNL 242336Z AUTO 00000KT FEW006 SCT007 BKN015 03/02 A2981 RMK AO1 SLP117
SPECI CYNL 242334Z AUTO 00000KT SCT006 BKN014 03/02 A2981 RMK AO1 SLP117
SPECI CYNL 242333Z AUTO 00000KT SCT006 BKN015 BKN021 03/02 A2981 RMK AO1 SLP117
SPECI CYNL 242327Z AUTO 00000KT SCT006 BKN010 BKN019 03/02 A2981 RMK AO1 SLP117
SPECI CYNL 242326Z AUTO 00000KT BKN006 BKN018 OVC028 03/02 A2981 RMK AO1 SLP117
METAR CYNL 242300Z AUTO 00000KT SCT008 BKN018 OVC027 04/02 A2980 RMK AO1 SLP114
SPECI CYNL 242255Z AUTO 00000KT SCT008 BKN018 OVC027 03/02 A2980 RMK AO1 SLP113
SPECI CYNL 242244Z AUTO 00000KT VV024 04/02 A2980 RMK AO1 SLP113
SPECI CYNL 242243Z AUTO 00000KT VV025 04/02 A2980 RMK AO1 SLP113
SPECI CYNL 242227Z AUTO 00000KT VV015 04/02 A2979 RMK AO1 SLP112
SPECI CYNL 242224Z AUTO 00000KT FEW007 SCT017 BKN031 04/02 A2979 RMK AO1 SLP112
METAR CYNL 242200Z AUTO 00000KT FEW011 SCT032 03/02 A2979 RMK AO1 SLP112
SPECI CYNL 242124Z AUTO 17003KT FEW010 SCT018 03/02 A2978 RMK AO1 SLP109
METAR CYNL 242100Z AUTO 20004KT FEW009 SCT011 BKN018 03/02 A2978 RMK AO1 SLP108
SPECI CYNL 242052Z AUTO 22003KT FEW010 SCT013 BKN020 04/01 A2978 RMK AO1 SLP108
SPECI CYNL 242042Z AUTO 19003KT SCT010 BKN210 04/01 A2978 RMK AO1 SLP108
SPECI CYNL 242041Z AUTO 18003KT SCT010 BKN029 03/01 A2978 RMK AO1 SLP108
SPECI CYNL 242036Z AUTO 20002KT BKN011 03/01 A2978 RMK AO1 SLP108
SPECI CYNL 242029Z AUTO 20004KT SCT011 BKN019 03/01 A2978 RMK AO1 SLP107
SPECI CYNL 242023Z AUTO 18003KT SCT012 BKN033 03/01 A2978 RMK AO1 SLP108
SPECI CYNL 242016Z AUTO 18005KT FEW010 SCT013 BKN019 03/01 A2978 RMK AO1 SLP107
SPECI CYNL 242012Z AUTO 19004KT BKN012 BKN019 OVC043 03/01 A2978 RMK AO1 SLP107
SPECI CYNL 242011Z AUTO 20003KT VV017 03/01 A2978 RMK AO1 SLP107
METAR CYNL 242000Z AUTO 21004KT BKN013 03/01 A2978 RMK AO1 SLP107
SPECI CYNL 241957Z AUTO 21003KT BKN014 03/01 A2978 RMK AO1 SLP107
SPECI CYNL 241956Z AUTO 22004KT SCT012 BKN016 03/01 A2978 RMK AO1 SLP107
SPECI CYNL 241954Z AUTO 22003KT BKN013 03/01 A2978 RMK AO1 SLP107
SPECI CYNL 241947Z AUTO 17002KT SCT013 BKN019 03/01 A2978 RMK AO1 SLP107
SPECI CYNL 241942Z AUTO 00000KT FEW013 SCT019 03/01 A2978 RMK AO1 SLP107
SPECI CYNL 241904Z AUTO 22004KT VV015 03/01 A2978 RMK AO1 SLP108
METAR CYNL 241900Z AUTO 19003KT VV014 03/00 A2978 RMK AO1 SLP109
SPECI CYNL 241853Z AUTO 22003KT BKN015 OVC019 03/01 A2978 RMK AO1 SLP108
SPECI CYNL 241840Z AUTO 18004KT BKN014 OVC018 03/00 A2978 RMK AO1 SLP108
SPECI CYNL 241830Z AUTO 19004KT BKN015 OVC022 03/M00 A2978 RMK AO1 SLP108
SPECI CYNL 241828Z AUTO 20006KT BKN014 BKN018 OVC022 03/M00 A2978 RMK AO1 SLP108
SPECI CYNL 241822Z AUTO 18005KT VV015 03/M00 A2978 RMK AO1 SLP108
SPECI CYNL 241816Z AUTO 19004KT BKN014 BKN019 OVC022 03/M00 A2978 RMK AO1 SLP108
SPECI CYNL 241815Z AUTO 20004KT BKN015 OVC021 03/M00 A2978 RMK AO1 SLP108
METAR CYNL 241800Z AUTO 18005KT BKN013 OVC016 03/M00 A2978 RMK AO1 SLP109
METAR CYNL 241700Z AUTO 17005KT BKN010 OVC038 02/M01 A2979 RMK AO1 SLP110
SPECI CYNL 241648Z AUTO 17005KT OVC010 02/M01 A2979 RMK AO1 SLP110
METAR CYNL 241600Z AUTO 17006KT OVC008 01/M01 A2980 RMK AO1 SLP115
METAR CYNL 241500Z AUTO 17007KT OVC007 01/M01 A2981 RMK AO1 SLP118
METAR CYNL 241400Z AUTO 18006KT OVC007 00/M01 A2981 RMK AO1 SLP119
METAR CYNL 241300Z AUTO 18005KT OVC007 00/M01 A2982 RMK AO1 SLP122
METAR CYNL 241200Z AUTO 17005KT OVC008 00/M02 A2983 RMK AO1 SLP125
METAR CYNL 241100Z AUTO 17005KT OVC009 00/M02 A2984 RMK AO1 SLP127
METAR CYNL 241000Z AUTO 17007KT OVC009 M00/M02 A2985 RMK AO1 SLP129
SPECI CYNL 240931Z AUTO 18006KT OVC009 M00/M02 A2986 RMK AO1 SLP131
METAR CYNL 240900Z AUTO 18007KT OVC011 M00/M02 A2986 RMK AO1 SLP133
METAR CYNL 240800Z AUTO 18010KT BKN014 BKN062 00/M03 A2988 RMK AO1 SLP138
SPECI CYNL 240755Z AUTO 17009KT BKN014 BKN062 00/M03 A2988 RMK AO1 SLP139
SPECI CYNL 240753Z AUTO 18007KT SCT013 BKN020 BKN062 00/M02 A2988 RMK AO1 SLP140
METAR CYNL 240700Z AUTO 19005KT FEW014 SCT020 OVC028 00/M03 A2989 RMK AO1 SLP143
SPECI CYNL 240656Z AUTO 19004KT FEW014 SCT020 OVC029 00/M03 A2989 RMK AO1 SLP144
SPECI CYNL 240653Z AUTO 19006KT SCT014 OVC030 00/M03 A2990 RMK AO1 SLP144
SPECI CYNL 240640Z AUTO 18008KT VV019 01/M03 A2990 RMK AO1 SLP145
METAR CYNL 240600Z AUTO 18007KT FEW008 SCT035 01/M04 A2991 RMK AO1 SLP149
SPECI CYNL 240543Z AUTO 19008KT FEW009 01/M04 A2992 RMK AO1 SLP152
METAR CYNL 240500Z AUTO 18013KT FEW064 02/M05 A2993 RMK AO1 SLP154
METAR CYNL 240400Z AUTO 19011G19KT FEW018 02/M06 A2994 RMK AO1 SLP158
METAR CYNL 240300Z AUTO 17009KT BKN060 03/M08 A2994 RMK AO1 SLP160
METAR CYNL 240200Z AUTO 16008KT BKN060 03/M08 A2995 RMK AO1 SLP165
METAR CYNL 240100Z AUTO 16008KT CLR 04/M09 A2996 RMK AO1 SLP171
METAR CYNL 240000Z AUTO 18009G17KT FEW170 04/M10 A2998 RMK AO1 SLP176
METAR CYNL 232300Z AUTO 16010G15KT CLR 05/M11 A2999 RMK AO1 SLP179
METAR CYNL 232200Z AUTO 17012G18KT CLR 06/M10 A3001 RMK AO1 PRESFR SLP184
METAR CYNL 232100Z AUTO 19011KT CLR 07/M08 A3003 RMK AO1 PRESFR SLP192
METAR CYNL 232000Z AUTO 18011G20KT CLR 06/M07 A3005 RMK AO1 PRESFR SLP201
METAR CYNL 231900Z AUTO 18010G17KT CLR 06/M06 A3008 RMK AO1 PRESFR SLP211
METAR CYNL 231800Z AUTO 19010G16KT CLR 05/M05 A3011 RMK AO1 PRESFR SLP220
METAR CYNL 231700Z AUTO 19008KT CLR 05/M05 A3013 RMK AO1 SLP230
METAR CYNL 231600Z AUTO 17007KT CLR 03/M04 A3014 RMK AO1 SLP235
METAR CYNL 231500Z AUTO 18005KT CLR 02/M04 A3016 RMK AO1 SLP241
METAR CYNL 231400Z AUTO 17005KT CLR M00/M04 A3017 RMK AO1 SLP247
METAR CYNL 231300Z AUTO 21004KT CLR M02/M05 A3017 RMK AO1 SLP250
METAR CYNL 231200Z AUTO 20005KT CLR M01/M05 A3018 RMK AO1 SLP247
METAR CYNL 231100Z AUTO 21004KT CLR M02/M05 A3018 RMK AO1 SLP246
METAR CYNL 231000Z AUTO 21005KT CLR M02/M05 A3019 RMK AO1 SLP249
METAR CYNL 230900Z AUTO 20005KT CLR M02/M05 A3019 RMK AO1 SLP249
METAR CYNL 230800Z AUTO 21006KT CLR M01/M06 A3019 RMK AO1 SLP249
METAR CYNL 230700Z AUTO 21005KT CLR M02/M06 A3019 RMK AO1 SLP252
METAR CYNL 230600Z AUTO 19003KT CLR M02/M06 A3020 RMK AO1 SLP256
METAR CYNL 230500Z AUTO 20003KT CLR M02/M07 A3021 RMK AO1 SLP260
METAR CYNL 230400Z AUTO 20004KT CLR M02/M07 A3022 RMK AO1 SLP263
METAR CYNL 230300Z AUTO 20002KT CLR M03/M07 A3022 RMK AO1 SLP266
METAR CYNL 230200Z AUTO 00000KT CLR M02/M07 A3022 RMK AO1 SLP268
METAR CYNL 230100Z AUTO 18003KT CLR 03/M06 A3022 RMK AO1 SLP268
METAR CYNL 230000Z AUTO 23006KT CLR 05/M08 A3023 RMK AO1 SLP272
METAR CYNL 222300Z AUTO 19006KT CLR 05/M08 A3024 RMK AO1 SLP277
METAR CYNL 222200Z AUTO 19008KT CLR 04/M08 A3024 RMK AO1 SLP279
METAR CYNL 222100Z AUTO 17004KT CLR 04/M08 A3026 RMK AO1 SLP284
METAR CYNL 222000Z AUTO 23006KT CLR 03/M10 A3027 RMK AO1 SLP289
METAR CYNL 221900Z AUTO 22003KT CLR 02/M09 A3029 RMK AO1 SLP294
METAR CYNL 221800Z AUTO 25004KT CLR 02/M10 A3030 RMK AO1 SLP299
METAR CYNL 221700Z AUTO 32006KT CLR 01/M10 A3031 RMK AO1 SLP302
METAR CYNL 221600Z AUTO 25006KT 210V290 CLR M00/M09 A3031 RMK AO1 SLP304
METAR CYNL 221500Z AUTO 00000KT CLR M02/M07 A3031 RMK AO1 SLP306
METAR CYNL 221400Z AUTO 24002KT CLR M06/M09 A3031 RMK AO1 SLP307
METAR CYNL 221300Z AUTO 00000KT CLR M11/M13 A3030 RMK AO1 SLP306
METAR CYNL 221200Z AUTO 24003KT CLR M11/M13 A3029 RMK AO1 SLP304
METAR CYNL 221100Z AUTO 00000KT CLR M11/M12 A3028 RMK AO1 SLP297
METAR CYNL 221000Z AUTO 00000KT CLR M11/M13 A3028 RMK AO1 SLP295
METAR CYNL 220900Z AUTO 00003KT CLR M10/M12 A3028 RMK AO1 SLP293
METAR CYNL 220800Z AUTO 00000KT CLR M10/M11 A3027 RMK AO1 SLP291
METAR CYNL 220700Z AUTO 00000KT CLR M10/M12 A3027 RMK AO1 SLP290
METAR CYNL 220600Z AUTO 00000KT CLR M08/M12 A3026 RMK AO1 SLP288
METAR CYNL 220500Z AUTO 35004KT CLR M08/M12 A3026 RMK AO1 SLP287
METAR CYNL 220400Z AUTO 00000KT CLR M07/M11 A3025 RMK AO1 SLP285
METAR CYNL 220300Z AUTO 32003KT CLR M06/M13 A3025 RMK AO1 SLP280
METAR CYNL 220200Z AUTO 35003KT CLR M04/M14 A3024 RMK AO1 SLP275
METAR CYNL 220100Z AUTO 34004KT CLR M02/M15 A3023 RMK AO1 SLP272
METAR CYNL 220000Z AUTO 32006KT CLR M00/M16 A3022 RMK AO1 SLP265
METAR CYNL 212300Z AUTO 32007KT CLR 01/M15 A3021 RMK AO1 SLP262
METAR CYNL 212200Z AUTO 33007G15KT CLR 01/M13 A3021 RMK AO1 SLP260
METAR CYNL 212100Z AUTO 29010G16KT CLR 01/M12 A3021 RMK AO1 SLP260
SPECI CYNL 212021Z AUTO 35011G17KT SCT040 00/M10 A3020 RMK AO1 WSHFT (20)21 SLP258
METAR CYNL 212000Z AUTO 35009KT BKN040 00/M10 A3020 RMK AO1 WSHFT (19)49 SLP258
SPECI CYNL 211949Z AUTO 30010G18KT FEW040 SCT049 00/M10 A3020 RMK AO1 WSHFT (19)49 SLP257
METAR CYNL 211900Z AUTO 00011KT FEW088 M01/M10 A3019 RMK AO1 SLP257
SPECI CYNL 211825Z AUTO 33009G15KT FEW007 SCT014 BKN140 M02/M07 A3020 RMK AO1 SLP259
SPECI CYNL 211816Z AUTO 33009G15KT FEW006 SCT008 BKN012 M02/M07 A3020 RMK AO1 SLP259
SPECI CYNL 211814Z AUTO 34009KT VV009 M02/M07 A3020 RMK AO1 SLP260
SPECI CYNL 211809Z AUTO 35009KT VV010 M02/M06 A3020 RMK AO1 SLP259
SPECI CYNL 211805Z AUTO 35008KT VV009 M02/M06 A3020 RMK AO1 SLP259
METAR CYNL 211800Z AUTO 33007KT VV013 M02/M06 A3020 RMK AO1 SLP259
SPECI CYNL 211745Z AUTO 33007KT VV014 M02/M07 A3019 RMK AO1 SLP257
SPECI CYNL 211742Z AUTO 33009G15KT VV015 M02/M07 A3019 RMK AO1 SLP257
SPECI CYNL 211741Z AUTO 34010KT VV014 M02/M07 A3019 RMK AO1 SLP257
SPECI CYNL 211739Z AUTO 33009G15KT FEW007 SCT010 BKN015 M02/M07 A3019 RMK AO1 SLP257
SPECI CYNL 211738Z AUTO 33010G15KT SCT007 BKN011 BKN027 M02/M07 A3019 RMK AO1 SLP257
SPECI CYNL 211737Z AUTO 33009G15KT VV010 M02/M07 A3019 RMK AO1 SLP257
SPECI CYNL 211731Z AUTO 34009G15KT VV009 M02/M06 A3019 RMK AO1 SLP257
SPECI CYNL 211725Z AUTO 34008G17KT FEW007 SCT010 BKN016 M02/M07 A3019 RMK AO1 SLP257
SPECI CYNL 211721Z AUTO 34010G17KT VV013 M02/M07 A3019 RMK AO1 SLP257
SPECI CYNL 211709Z AUTO 34011KT FEW010 BKN016 M02/M07 A3018 RMK AO1 SLP255
SPECI CYNL 211708Z AUTO 34011KT FEW008 SCT016 BKN092 M02/M06 A3018 RMK AO1 SLP255
METAR CYNL 211700Z AUTO 35008KT SCT016 BKN230 M02/M06 A3018 RMK AO1 SLP255
SPECI CYNL 211658Z AUTO 35008KT SCT016 BKN180 M02/M06 A3018 RMK AO1 SLP254
SPECI CYNL 211601Z AUTO 34013KT 300V020 FEW009 OVC015 M02/M05 A3017 RMK AO1 WSHFT (16)00 SLP248
METAR CYNL 211600Z AUTO 33013G17KT 300V010 OVC015 M02/M05 A3017 RMK AO1 WSHFT (16)00 SLP248
METAR CYNL 211500Z AUTO 29005KT OVC013 M01/M04 A3016 RMK AO1 SLP244
METAR CYNL 211400Z AUTO 28007KT BKN014 M02/M05 A3015 RMK AO1 SLP243
SPECI CYNL 211350Z AUTO 28009G16KT BKN014 M02/M05 A3015 RMK AO1 SLP242
SPECI CYNL 211348Z AUTO 28007G16KT BKN015 BKN096 M02/M05 A3015 RMK AO1 SLP242
METAR CYNL 211300Z AUTO 29007KT BKN012 BKN019 OVC096 M02/M05 A3015 RMK AO1 SLP241
SPECI CYNL 211254Z AUTO 27007KT BKN012 BKN026 OVC096 M02/M05 A3015 RMK AO1 SLP240
SPECI CYNL 211232Z AUTO 29007KT FEW015 OVC024 M02/M05 A3015 RMK AO1 SLP240
SPECI CYNL 211229Z AUTO 29010G16KT FEW014 OVC025 M02/M05 A3015 RMK AO1 SLP240
SPECI CYNL 211208Z AUTO 30011G18KT SCT014 OVC021 M02/M05 A3014 RMK AO1 SLP240
SPECI CYNL 211202Z AUTO 29011G17KT BKN014 OVC020 M02/M05 A3014 RMK AO1 SLP239
METAR CYNL 211200Z AUTO 29013KT SCT014 BKN020 OVC025 M02/M05 A3014 RMK AO1 SLP239
SPECI CYNL 211137Z AUTO 29008G16KT FEW014 BKN024 M02/M05 A3014 RMK AO1 SLP238
SPECI CYNL 211123Z AUTO 28010G17KT SCT014 OVC025 M02/M05 A3014 RMK AO1 SLP237
SPECI CYNL 211114Z AUTO 29010G18KT SCT013 BKN018 OVC022 M02/M04 A3014 RMK AO1 SLP237
SPECI CYNL 211106Z AUTO 28010G18KT FEW007 BKN014 OVC018 M02/M04 A3014 RMK AO1 SLP238
METAR CYNL 211100Z AUTO 29008G16KT BKN013 OVC017 M02/M04 A3014 RMK AO1 SLP238
SPECI CYNL 211054Z AUTO 28009G16KT BKN014 OVC018 M02/M04 A3014 RMK AO1 SLP237
SPECI CYNL 211047Z AUTO 28008G15KT VV015 M02/M04 A3014 RMK AO1 SLP237
SPECI CYNL 211042Z AUTO 28009G15KT VV014 M02/M04 A3014 RMK AO1 SLP238
SPECI CYNL 211021Z AUTO 29009KT FEW010 SCT013 BKN020 M02/M04 A3014 RMK AO1 SLP238
SPECI CYNL 211019Z AUTO 28010KT FEW009 BKN014 M02/M04 A3014 RMK AO1 SLP239
SPECI CYNL 211017Z AUTO 28007KT FEW008 SCT013 BKN022 M02/M04 A3014 RMK AO1 SLP239
SPECI CYNL 211014Z AUTO 28008KT SCT014 BKN022 M02/M04 A3015 RMK AO1 SLP239
SPECI CYNL 211008Z AUTO 28009KT FEW007 BKN013 BKN030 M02/M04 A3015 RMK AO1 SLP239
SPECI CYNL 211004Z AUTO 28008KT FEW007 SCT013 BKN022 M02/M04 A3015 RMK AO1 SLP239
METAR CYNL 211000Z AUTO 28008KT FEW007 SCT014 BKN030 M02/M04 A3015 RMK AO1 SLP239
SPECI CYNL 210926Z AUTO 29010G17KT SCT013 M02/M04 A3015 RMK AO1 SLP241
SPECI CYNL 210923Z AUTO 30009G17KT SCT013 BKN016 M02/M04 A3015 RMK AO1 SLP241
SPECI CYNL 210921Z AUTO 29010G16KT SCT012 M02/M04 A3015 RMK AO1 SLP241
SPECI CYNL 210920Z AUTO 29009G16KT SCT012 BKN016 M02/M04 A3015 RMK AO1 SLP241
SPECI CYNL 210919Z AUTO 29009G16KT BKN012 M02/M04 A3015 RMK AO1 SLP241
SPECI CYNL 210918Z AUTO 29009G16KT SCT012 BKN016 M02/M04 A3015 RMK AO1 SLP241
METAR CYNL 210900Z AUTO 29008KT FEW005 BKN011 M02/M04 A3015 RMK AO1 SLP241
SPECI CYNL 210838Z AUTO 28012G18KT FEW005 SCT007 BKN013 M02/M04 A3015 RMK AO1 SLP242
SPECI CYNL 210834Z AUTO 28010G17KT VV007 M02/M04 A3015 RMK AO1 SLP242
SPECI CYNL 210823Z AUTO 28012G17KT FEW006 SCT034 M01/M04 A3015 RMK AO1 SLP242
METAR CYNL 210800Z AUTO 28009G18KT FEW014 OVC036 M01/M04 A3016 RMK AO1 SLP242
SPECI CYNL 210744Z AUTO 28009G16KT SCT012 OVC037 M01/M04 A3016 RMK AO1 SLP242
SPECI CYNL 210737Z AUTO 28010KT SCT011 BKN016 OVC038 M01/M04 A3016 RMK AO1 SLP243
SPECI CYNL 210736Z AUTO 28009KT SCT011 OVC038 M01/M04 A3016 RMK AO1 SLP243
SPECI CYNL 210735Z AUTO 28009KT SCT011 BKN016 OVC038 M01/M04 A3016 RMK AO1 SLP243
SPECI CYNL 210717Z AUTO 28009KT BKN011 BKN039 M02/M04 A3016 RMK AO1 SLP244
METAR CYNL 210700Z AUTO 28010G15KT SCT012 BKN038 M02/M04 A3016 RMK AO1 SLP245
SPECI CYNL 210650Z AUTO 28008KT SCT012 M02/M04 A3016 RMK AO1 SLP246
SPECI CYNL 210648Z AUTO 28007KT SCT012 BKN015 M02/M04 A3017 RMK AO1 SLP246
METAR CYNL 210600Z AUTO 28009G17KT BKN011 M02/M04 A3017 RMK AO1 SLP247
SPECI CYNL 210557Z AUTO 28012G17KT SCT011 BKN013 M02/M04 A3017 RMK AO1 SLP248
SPECI CYNL 210556Z AUTO 28011G17KT SCT011 M02/M04 A3017 RMK AO1 SLP248
SPECI CYNL 210547Z AUTO 28010KT BKN011 M02/M04 A3017 RMK AO1 SLP248
SPECI CYNL 210519Z AUTO 28010G17KT SCT013 M02/M05 A3017 RMK AO1 SLP247
SPECI CYNL 210518Z AUTO 28010G17KT SCT013 BKN019 M02/M05 A3017 RMK AO1 SLP247
METAR CYNL 210500Z AUTO 27009G15KT BKN014 M01/M04 A3017 RMK AO1 SLP247
SPECI CYNL 210422Z AUTO 29013G20KT BKN014 OVC019 M01/M04 A3017 RMK AO1 SLP248
SPECI CYNL 210415Z AUTO 28010G18KT SCT013 BKN018 OVC021 M01/M04 A3017 RMK AO1 SLP248
METAR CYNL 210400Z AUTO 29010G18KT OVC013 M01/M04 A3017 RMK AO1 SLP249
SPECI CYNL 210343Z AUTO 28012G17KT BKN013 M01/M04 A3017 RMK AO1 SLP249
SPECI CYNL 210339Z AUTO 27012G17KT FEW011 SCT014 BKN018 M01/M04 A3017 RMK AO1 SLP250
SPECI CYNL 210338Z AUTO 27010G17KT FEW011 SCT014 BKN025 M01/M04 A3018 RMK AO1 SLP250
SPECI CYNL 210303Z AUTO 27007KT SCT016 OVC032 M01/M04 A3018 RMK AO1 SLP249
METAR CYNL 210300Z AUTO 28008KT SCT016 BKN021 OVC030 M01/M04 A3018 RMK AO1 SLP249
SPECI CYNL 210254Z AUTO 27009G17KT SCT016 BKN021 OVC036 M01/M04 A3018 RMK AO1 SLP250
SPECI CYNL 210247Z AUTO 27007G17KT SCT017 BKN026 BKN056 M01/M04 A3018 RMK AO1 SLP250
METAR CYNL 210200Z AUTO 27008KT FEW024 SCT058 M01/M05 A3017 RMK AO1 SLP249
SPECI CYNL 210107Z AUTO 29007KT FEW007 SCT022 BKN052 M00/M05 A3017 RMK AO1 SLP249
SPECI CYNL 210106Z AUTO 28007KT VV017 M00/M05 A3017 RMK AO1 SLP248
SPECI CYNL 210103Z AUTO 30009G16KT FEW013 SCT022 M00/M06 A3017 RMK AO1 SLP248
SPECI CYNL 210102Z AUTO 29009G16KT VV021 M00/M06 A3017 RMK AO1 SLP248
METAR CYNL 210100Z AUTO 30007G16KT FEW013 SCT032 M00/M06 A3017 RMK AO1 SLP249
METAR CYNL 210000Z AUTO 29010G18KT OVC037 00/M08 A3017 RMK AO1 SLP246
METAR CYNL 202300Z AUTO 29012G18KT OVC037 00/M09 A3017 RMK AO1 SLP246
METAR CYNL 202200Z AUTO 30012G22KT OVC038 00/M09 A3015 RMK AO1 SLP241
METAR CYNL 202100Z AUTO 26013G21KT BKN038 00/M09 A3015 RMK AO1 SLP237
METAR CYNL 202000Z AUTO 29012G20KT BKN037 01/M09 A3014 RMK AO1 SLP235
METAR CYNL 201900Z AUTO 29010G20KT OVC036 00/M09 A3013 RMK AO1 SLP234
METAR CYNL 201800Z AUTO 28015G21KT BKN037 M00/M09 A3013 RMK AO1 SLP233
METAR CYNL 201700Z AUTO 29015G21KT BKN037 M01/M10 A3013 RMK AO1 SLP233
METAR CYNL 201600Z AUTO 30009G19KT BKN034 M01/M09 A3011 RMK AO1 SLP228
METAR CYNL 201500Z AUTO 30013G24KT BKN030 M01/M09 A3010 RMK AO1 PRESRR SLP224
METAR CYNL 201400Z AUTO 29008G16KT SCT043 BKN150 M02/M07 A3008 RMK AO1 SLP217
METAR CYNL 201300Z AUTO 27009KT FEW045 M02/M06 A3007 RMK AO1 SLP212
METAR CYNL 201200Z AUTO 28005KT FEW042 M01/M06 A3006 RMK AO1 SLP206
METAR CYNL 201100Z AUTO 27006KT CLR M01/M07 A3005 RMK AO1 SLP202
METAR CYNL 201000Z AUTO 27008KT FEW120 M00/M07 A3004 RMK AO1 SLP197
METAR CYNL 200900Z AUTO 24007KT BKN120 00/M07 A3003 RMK AO1 SLP196
METAR CYNL 200800Z AUTO 21005KT FEW064 M01/M07 A3005 RMK AO1 SLP202
METAR CYNL 200700Z AUTO 21003KT FEW062 M01/M07 A3005 RMK AO1 SLP204
METAR CYNL 200600Z AUTO 00000KT SCT050 BKN064 M00/M06 A3007 RMK AO1 SLP207
METAR CYNL 200500Z AUTO 20003KT OVC068 M00/M07 A3007 RMK AO1 SLP208
METAR CYNL 200400Z AUTO 31004KT FEW058 BKN070 00/M07 A3007 RMK AO1 SLP209
METAR CYNL 200300Z AUTO 00000KT BKN066 00/M06 A3007 RMK AO1 SLP210
METAR CYNL 200200Z AUTO 00000KT OVC060 01/M07 A3006 RMK AO1 SLP208
METAR CYNL 200100Z AUTO 29006KT BKN058 01/M07 A3006 RMK AO1 SLP208
METAR CYNL 200000Z AUTO 29006KT BKN058 02/M07 A3005 RMK AO1 SLP205
METAR CYNL 192300Z AUTO 32007G17KT FEW056 03/M06 A3005 RMK AO1 SLP204
METAR CYNL 192200Z AUTO 31007KT FEW044 BKN058 03/M07 A3006 RMK AO1 SLP207
METAR CYNL 192100Z AUTO 28009G17KT BKN054 02/M08 A3007 RMK AO1 SLP210
METAR CYNL 192000Z AUTO 26008G18KT BKN052 02/M10 A3007 RMK AO1 SLP212
METAR CYNL 191900Z AUTO 27009G15KT BKN056 03/M11 A3008 RMK AO1 SLP214
METAR CYNL 191800Z AUTO 30007KT BKN056 03/M11 A3008 RMK AO1 SLP216
METAR CYNL 191700Z AUTO 31007KT FEW033 02/M11 A3009 RMK AO1 SLP221
METAR CYNL 191600Z AUTO 28005KT SCT036 01/M08 A3009 RMK AO1 SLP221
METAR CYNL 191500Z AUTO 28005KT BKN052 00/M07 A3009 RMK AO1 SLP219
METAR CYNL 191400Z AUTO 00000KT FEW038 BKN058 M01/M06 A3009 RMK AO1 SLP220
METAR CYNL 191300Z AUTO 26003KT BKN060 M02/M06 A3009 RMK AO1 SLP218
METAR CYNL 191200Z AUTO 27004KT BKN058 M02/M06 A3008 RMK AO1 SLP215
METAR CYNL 191100Z AUTO 26003KT OVC060 M02/M07 A3008 RMK AO1 SLP212
METAR CYNL 191000Z AUTO 27004KT OVC054 M02/M07 A3007 RMK AO1 SLP209
METAR CYNL 190900Z AUTO 25004KT OVC052 M03/M06 A3008 RMK AO1 SLP211
METAR CYNL 190800Z AUTO 25003KT BKN049 M03/M07 A3008 RMK AO1 SLP211
METAR CYNL 190700Z AUTO 24003KT OVC050 M03/M06 A3008 RMK AO1 SLP212
METAR CYNL 190600Z AUTO 25002KT BKN050 M04/M06 A3009 RMK AO1 SLP215
METAR CYNL 190500Z AUTO 24003KT FEW049 M03/M06 A3008 RMK AO1 SLP213
METAR CYNL 190400Z AUTO 00000KT CLR M02/M06 A3008 RMK AO1 SLP210
METAR CYNL 190300Z AUTO 34005KT CLR M01/M07 A3007 RMK AO1 PRESRR SLP208
METAR CYNL 190200Z AUTO 33005KT FEW054 01/M06 A3005 RMK AO1 PRESRR SLP199
METAR CYNL 190100Z AUTO 33008KT SCT044 BKN058 03/M05 A3003 RMK AO1 PRESRR SLP189
METAR CYNL 190000Z AUTO 32006KT SCT068 04/M04 A3000 RMK AO1 SLP180
METAR CYNL 182300Z AUTO 32007G17KT FEW050 SCT068 04/M04 A2999 RMK AO1 SLP176
METAR CYNL 182200Z AUTO 32005KT FEW044 SCT060 05/M03 A2997 RMK AO1 SLP170
SPECI CYNL 182122Z AUTO 31006G20KT FEW009 BKN039 04/M02 A2997 RMK AO1 SLP171
METAR CYNL 182100Z AUTO 33006KT FEW037 SCT060 06/M03 A2996 RMK AO1 SLP165
METAR CYNL 182000Z AUTO 33013G20KT SCT026 BKN039 05/M01 A2995 RMK AO1 SLP165
SPECI CYNL 181937Z AUTO 28011KT 240V310 SCT026 BKN041 06/M00 A2994 RMK AO1 WSHFT (19)37 SLP161
METAR CYNL 181900Z AUTO 24010KT FEW042 05/00 A2994 RMK AO1 SLP159
METAR CYNL 181800Z AUTO 26008KT FEW019 SCT024 BKN048 04/01 A2993 RMK AO1 SLP158
SPECI CYNL 181753Z AUTO 28008G16KT SCT020 BKN048 04/00 A2993 RMK AO1 SLP157
SPECI CYNL 181730Z AUTO 27010G16KT BKN023 05/00 A2993 RMK AO1 SLP155
SPECI CYNL 181715Z AUTO 27010G16KT SCT024 BKN080 05/M00 A2992 RMK AO1 SLP154
SPECI CYNL 181711Z AUTO 28010G16KT BKN024 05/M00 A2992 RMK AO1 SLP154
METAR CYNL 181700Z AUTO 28010G15KT FEW025 SCT110 05/M01 A2992 RMK AO1 SLP153
METAR CYNL 181600Z AUTO 25008KT CLR 05/M01 A2992 RMK AO1 SLP152
METAR CYNL 181500Z AUTO 24007G16KT CLR 05/M00 A2992 RMK AO1 SLP152
METAR CYNL 181400Z AUTO 23009KT FEW110 04/M00 A2993 RMK AO1 SLP153
METAR CYNL 181300Z AUTO 23008KT OVC120 03/M01 A2994 RMK AO1 SLP158
METAR CYNL 181200Z AUTO 23007KT OVC110 03/M01 A2995 RMK AO1 SLP162
METAR CYNL 181100Z AUTO 22006KT OVC110 02/M01 A2997 RMK AO1 SLP168
METAR CYNL 181000Z AUTO 21005KT CLR 01/M01 A2999 RMK AO1 SLP175
METAR CYNL 180900Z AUTO 21006KT CLR 01/M01 A3000 RMK AO1 SLP180
METAR CYNL 180800Z AUTO 21005KT CLR 01/M01 A3002 RMK AO1 SLP186
METAR CYNL 180700Z AUTO 21006KT CLR 01/M00 A3004 RMK AO1 SLP192
METAR CYNL 180600Z AUTO 20005KT CLR 02/M01 A3005 RMK AO1 SLP197
METAR CYNL 180500Z AUTO 20006KT CLR 02/M01 A3006 RMK AO1 SLP199
METAR CYNL 180400Z AUTO 20006KT CLR 03/M02 A3006 RMK AO1 SLP201
METAR CYNL 180300Z AUTO 19007KT CLR 04/M02 A3007 RMK AO1 SLP203
METAR CYNL 180200Z AUTO 19006KT BKN052 04/M03 A3007 RMK AO1 SLP204
METAR CYNL 180100Z AUTO 20006KT OVC050 05/M04 A3007 RMK AO1 SLP206
METAR CYNL 180000Z AUTO 19005KT OVC050 06/M04 A3008 RMK AO1 SLP208
METAR CYNL 172300Z AUTO 22007KT BKN050 06/M05 A3009 RMK AO1 SLP212
METAR CYNL 172200Z AUTO 18006KT BKN047 06/M04 A3010 RMK AO1 PRESFR SLP217
METAR CYNL 172100Z AUTO 25005KT OVC045 06/M05 A3013 RMK AO1 SLP227
METAR CYNL 172000Z AUTO 00000KT OVC046 05/M05 A3015 RMK AO1 SLP235
METAR CYNL 171900Z AUTO 18004KT OVC043 05/M06 A3017 RMK AO1 SLP242
METAR CYNL 171800Z AUTO 18006KT OVC048 05/M05 A3018 RMK AO1 SLP247
METAR CYNL 171700Z AUTO 15005KT OVC048 04/M04 A3020 RMK AO1 SLP254
METAR CYNL 171600Z AUTO 17004KT OVC049 03/M03 A3021 RMK AO1 SLP258
METAR CYNL 171500Z AUTO 17003KT OVC048 03/M03 A3022 RMK AO1 SLP262
METAR CYNL 171400Z AUTO 00000KT OVC047 01/M01 A3023 RMK AO1 SLP265
METAR CYNL 171300Z AUTO 00000KT OVC047 M00/M02 A3023 RMK AO1 SLP265
METAR CYNL 171200Z AUTO 00000KT OVC049 M01/M03 A3024 RMK AO1 SLP265
METAR CYNL 171100Z AUTO 00000KT OVC050 M01/M03 A3025 RMK AO1 SLP268
METAR CYNL 171000Z AUTO 09002KT OVC048 M01/M03 A3026 RMK AO1 SLP272
METAR CYNL 170900Z AUTO 00000KT BKN047 M03/M04 A3027 RMK AO1 SLP275
METAR CYNL 170800Z AUTO 00000KT FEW047 M03/M05 A3027 RMK AO1 SLP277
METAR CYNL 170700Z AUTO 00000KT FEW046 M02/M04 A3028 RMK AO1 SLP279
METAR CYNL 170600Z AUTO 00000KT OVC046 M02/M05 A3028 RMK AO1 SLP281
METAR CYNL 170500Z AUTO 00000KT BKN047 M02/M05 A3028 RMK AO1 SLP281
METAR CYNL 170400Z AUTO 00000KT CLR M02/M05 A3028 RMK AO1 SLP282
METAR CYNL 170300Z AUTO 00000KT CLR M01/M04 A3028 RMK AO1 SLP281
METAR CYNL 170200Z AUTO 08002KT CLR 01/M05 A3029 RMK AO1 SLP282
METAR CYNL 170100Z AUTO 11003KT CLR 04/M05 A3029 RMK AO1 SLP283
METAR CYNL 170000Z AUTO 13004KT CLR 05/M06 A3030 RMK AO1 SLP288
METAR CYNL 162300Z AUTO 17007KT BKN043 05/M05 A3030 RMK AO1 SLP289
METAR CYNL 162200Z AUTO 13004KT OVC046 06/M05 A3030 RMK AO1 SLP288
METAR CYNL 162100Z AUTO 01003KT BKN046 06/M06 A3030 RMK AO1 SLP289
METAR CYNL 162000Z AUTO 03002KT SCT042 05/M06 A3031 RMK AO1 SLP294
METAR CYNL 161900Z AUTO 00000KT FEW041 04/M06 A3032 RMK AO1 SLP295
METAR CYNL 161800Z AUTO 33007KT 300V010 BKN039 OVC230 05/M05 A3032 RMK AO1 SLP295
METAR CYNL 161700Z AUTO 03005KT FEW037 03/M06 A3034 RMK AO1 SLP300
METAR CYNL 161600Z AUTO 01006KT 330V040 CLR 04/M06 A3035 RMK AO1 SLP302
METAR CYNL 161500Z AUTO 02005KT CLR 03/M05 A3035 RMK AO1 SLP307
METAR CYNL 161400Z AUTO 34004KT CLR 01/M03 A3036 RMK AO1 SLP311
METAR CYNL 161300Z AUTO 34003KT CLR M04/M06 A3035 RMK AO1 SLP311
METAR CYNL 161200Z AUTO 00000KT CLR M04/M06 A3036 RMK AO1 SLP311
METAR CYNL 161100Z AUTO 25003KT CLR M04/M05 A3036 RMK AO1 SLP310
METAR CYNL 161000Z AUTO 27002KT CLR M04/M05 A3035 RMK AO1 SLP307
METAR CYNL 160900Z AUTO 00000KT CLR M03/M04 A3035 RMK AO1 SLP306
METAR CYNL 160800Z AUTO 23002KT CLR M03/M04 A3035 RMK AO1 SLP304
METAR CYNL 160700Z AUTO 33003KT CLR M03/M04 A3035 RMK AO1 SLP306
METAR CYNL 160600Z AUTO 32003KT CLR M02/M04 A3035 RMK AO1 SLP305
METAR CYNL 160500Z AUTO 32004KT FEW054 M00/M03 A3034 RMK AO1 SLP299
METAR CYNL 160400Z AUTO 31004KT SCT054 M01/M04 A3033 RMK AO1 SLP299
METAR CYNL 160300Z AUTO 32004KT CLR M00/M04 A3032 RMK AO1 SLP294
METAR CYNL 160200Z AUTO 32006KT CLR 02/M04 A3030 RMK AO1 SLP289
METAR CYNL 160100Z AUTO 33004KT SCT056 03/M05 A3031 RMK AO1 SLP287
METAR CYNL 160000Z AUTO 32004KT BKN054 05/M05 A3030 RMK AO1 SLP284
METAR CYNL 152300Z AUTO 31003KT SCT048 05/M05 A3030 RMK AO1 SLP283
METAR CYNL 152200Z AUTO 27007KT SCT045 05/M06 A3030 RMK AO1 SLP282
METAR CYNL 152100Z AUTO 29007KT BKN041 05/M05 A3031 RMK AO1 SLP286
METAR CYNL 152000Z AUTO 28009KT BKN039 04/M05 A3031 RMK AO1 SLP286
METAR CYNL 151900Z AUTO 29008KT BKN037 04/M05 A3031 RMK AO1 SLP286
METAR CYNL 151800Z AUTO 30008G17KT SCT034 04/M05 A3031 RMK AO1 SLP288
SPECI CYNL 151704Z AUTO 32010G18KT BKN031 03/M05 A3031 RMK AO1 WSHFT (17)04 SLP287
METAR CYNL 151700Z AUTO 29011G17KT BKN031 03/M06 A3031 RMK AO1 SLP288
SPECI CYNL 151648Z AUTO 30011G18KT BKN030 03/M05 A3031 RMK AO1 SLP287
SPECI CYNL 151612Z AUTO 30010G19KT BKN029 03/M05 A3031 RMK AO1 SLP286
METAR CYNL 151600Z AUTO 29011KT SCT027 02/M05 A3030 RMK AO1 SLP286
SPECI CYNL 151538Z AUTO 30011G17KT FEW017 SCT025 BKN042 01/M05 A3030 RMK AO1 SLP285
SPECI CYNL 151535Z AUTO 30010G17KT FEW017 BKN025 01/M05 A3030 RMK AO1 SLP284
SPECI CYNL 151534Z AUTO 30011G17KT FEW017 SCT025 BKN041 01/M05 A3030 RMK AO1 SLP284
SPECI CYNL 151533Z AUTO 30010G17KT FEW017 BKN025 01/M05 A3029 RMK AO1 SLP284
METAR CYNL 151500Z AUTO 29006KT FEW011 SCT014 BKN041 00/M02 A3029 RMK AO1 SLP283
SPECI CYNL 151456Z AUTO 29007KT FEW011 SCT014 BKN018 00/M02 A3029 RMK AO1 SLP283
SPECI CYNL 151444Z AUTO 29012KT VV014 01/M02 A3029 RMK AO1 SLP282
SPECI CYNL 151443Z AUTO 29012KT FEW008 BKN019 01/M03 A3029 RMK AO1 SLP282
METAR CYNL 151400Z AUTO 28006KT BKN017 OVC039 01/M03 A3028 RMK AO1 SLP277
SPECI CYNL 151323Z AUTO 29007KT SCT016 BKN020 OVC080 01/M03 A3028 RMK AO1 SLP277
SPECI CYNL 151320Z AUTO 29007KT SCT016 BKN029 OVC080 01/M03 A3028 RMK AO1 SLP277
METAR CYNL 151300Z AUTO 28009KT FEW019 BKN034 OVC080 01/M02 A3027 RMK AO1 SLP274
SPECI CYNL 151243Z AUTO 29010G16KT SCT017 OVC030 02/M02 A3026 RMK AO1 SLP272
SPECI CYNL 151242Z AUTO 29010G16KT SCT017 BKN022 OVC030 02/M02 A3026 RMK AO1 SLP272
SPECI CYNL 151241Z AUTO 29010G16KT SCT017 OVC028 02/M02 A3026 RMK AO1 SLP272
SPECI CYNL 151229Z AUTO 28009KT BKN017 OVC031 02/M02 A3026 RMK AO1 SLP271
SPECI CYNL 151206Z AUTO 27006KT BKN025 OVC082 02/M02 A3026 RMK AO1 SLP270
METAR CYNL 151200Z AUTO 27006KT BKN024 OVC082 02/M02 A3026 RMK AO1 SLP270
METAR CYNL 151100Z AUTO 26007KT OVC084 02/M03 A3025 RMK AO1 SLP265
METAR CYNL 151000Z AUTO 25006KT OVC086 02/M03 A3024 RMK AO1 SLP262
METAR CYNL 150900Z AUTO 25009KT FEW058 BKN084 03/M04 A3024 RMK AO1 SLP260
METAR CYNL 150800Z AUTO 25009KT FEW058 OVC088 03/M04 A3023 RMK AO1 SLP258
METAR CYNL 150700Z AUTO 23006KT FEW088 02/M04 A3023 RMK AO1 SLP257
METAR CYNL 150600Z AUTO 23005KT BKN076 03/M03 A3023 RMK AO1 SLP257
METAR CYNL 150500Z AUTO 22005KT BKN084 03/M04 A3023 RMK AO1 SLP257
METAR CYNL 150400Z AUTO 24005KT OVC084 04/M04 A3022 RMK AO1 SLP256
METAR CYNL 150300Z AUTO 23006KT OVC082 04/M04 A3022 RMK AO1 SLP255
METAR CYNL 150200Z AUTO 24004KT OVC082 03/M05 A3021 RMK AO1 SLP255
METAR CYNL 150100Z AUTO 23005KT OVC084 04/M06 A3021 RMK AO1 SLP254
METAR CYNL 150000Z AUTO 25007KT OVC084 05/M06 A3021 RMK AO1 SLP254
METAR CYNL 142300Z AUTO 25007KT BKN080 05/M05 A3021 RMK AO1 SLP254
METAR CYNL 142200Z AUTO 26007G17KT SCT064 05/M06 A3020 RMK AO1 SLP252
METAR CYNL 142100Z AUTO 24008KT FEW052 BKN074 05/M09 A3020 RMK AO1 SLP250
METAR CYNL 142000Z AUTO 25011KT FEW068 06/M08 A3020 RMK AO1 SLP249
SPECI CYNL 141938Z AUTO 24010G15KT FEW070 SCT088 06/M08 A3020 RMK AO1 WSHFT (19)38 SLP248
METAR CYNL 141900Z AUTO 24009G16KT FEW088 05/M07 A3020 RMK AO1 SLP249
METAR CYNL 141800Z AUTO 25012G18KT SCT086 04/M07 A3020 RMK AO1 SLP251
METAR CYNL 141700Z AUTO 26009KT FEW058 04/M05 A3020 RMK AO1 SLP251
METAR CYNL 141600Z AUTO 26007KT BKN086 03/M04 A3019 RMK AO1 SLP248
METAR CYNL 141500Z AUTO 26005KT BKN082 02/M03 A3018 RMK AO1 SLP246
METAR CYNL 141400Z AUTO 25006KT OVC076 01/M03 A3017 RMK AO1 SLP245
METAR CYNL 141300Z AUTO 26003KT OVC068 01/M03 A3016 RMK AO1 SLP241
METAR CYNL 141200Z AUTO 26004KT OVC068 00/M03 A3015 RMK AO1 SLP237
METAR CYNL 141100Z AUTO 27004KT OVC066 M01/M03 A3015 RMK AO1 SLP236
METAR CYNL 141000Z AUTO 27003KT CLR M01/M03 A3014 RMK AO1 SLP232
METAR CYNL 140900Z AUTO 28003KT CLR M01/M03 A3013 RMK AO1 SLP228
METAR CYNL 140800Z AUTO 27004KT OVC060 01/M02 A3012 RMK AO1 SLP223
METAR CYNL 140700Z AUTO 28004KT BKN060 00/M02 A3012 RMK AO1 SLP224
METAR CYNL 140600Z AUTO 27005KT OVC062 00/M02 A3011 RMK AO1 SLP221
METAR CYNL 140500Z AUTO 29004KT OVC060 01/M02 A3011 RMK AO1 SLP220
METAR CYNL 140400Z AUTO 28003KT OVC056 01/M03 A3010 RMK AO1 SLP218
METAR CYNL 140300Z AUTO 32003KT FEW060 00/M03 A3010 RMK AO1 SLP218
METAR CYNL 140200Z AUTO 32005KT SCT094 01/M04 A3009 RMK AO1 SLP215
METAR CYNL 140100Z AUTO 31007KT CLR 02/M03 A3008 RMK AO1 SLP213
SPECI CYNL 140007Z AUTO 32008KT FEW008 02/M03 A3008 RMK AO1 SLP213
METAR CYNL 140000Z AUTO 31009KT FEW038 02/M03 A3008 RMK AO1 SLP213
SPECI CYNL 132329Z AUTO 01007KT FEW008 03/M05 A3007 RMK AO1 SLP208
METAR CYNL 132300Z AUTO 33006KT CLR 03/M06 A3006 RMK AO1 SLP206
METAR CYNL 132200Z AUTO 35006KT SCT052 04/M06 A3005 RMK AO1 SLP200
METAR CYNL 132100Z AUTO 35008G15KT OVC048 04/M06 A3004 RMK AO1 SLP195
METAR CYNL 132000Z AUTO 01007KT BKN048 05/M06 A3004 RMK AO1 SLP196
METAR CYNL 131900Z AUTO 35008KT FEW046 SCT150 04/M06 A3004 RMK AO1 SLP195
METAR CYNL 131800Z AUTO 01011KT FEW045 04/M06 A3004 RMK AO1 SLP197
METAR CYNL 131700Z AUTO 02012KT FEW092 03/M07 A3004 RMK AO1 SLP198
METAR CYNL 131600Z AUTO 01007KT CLR 02/M05 A3006 RMK AO1 SLP204
METAR CYNL 131500Z AUTO 00006KT CLR 02/M04 A3006 RMK AO1 SLP203
METAR CYNL 131400Z AUTO 01004KT CLR 01/M04 A3006 RMK AO1 SLP204
METAR CYNL 131300Z AUTO 00006KT CLR M01/M04 A3005 RMK AO1 SLP202
METAR CYNL 131200Z AUTO 35005KT SCT140 M01/M04 A3004 RMK AO1 SLP200
METAR CYNL 131100Z AUTO 00005KT BKN140 M00/M03 A3005 RMK AO1 SLP202
METAR CYNL 131000Z AUTO 02005KT OVC120 01/M03 A3005 RMK AO1 SLP201
METAR CYNL 130900Z AUTO 02003KT FEW038 OVC120 01/M02 A3005 RMK AO1 SLP201
METAR CYNL 130800Z AUTO 01004KT BKN037 01/M03 A3005 RMK AO1 SLP201
METAR CYNL 130700Z AUTO 00004KT BKN120 01/M03 A3006 RMK AO1 SLP205
METAR CYNL 130600Z AUTO 00004KT SCT130 01/M03 A3008 RMK AO1 SLP211
METAR CYNL 130500Z AUTO 01004KT FEW130 01/M03 A3009 RMK AO1 SLP214
METAR CYNL 130400Z AUTO 01005KT CLR 02/M03 A3009 RMK AO1 SLP217
METAR CYNL 130300Z AUTO 01004KT CLR 02/M02 A3010 RMK AO1 SLP219
METAR CYNL 130200Z AUTO 01002KT CLR 02/M01 A3009 RMK AO1 SLP216
METAR CYNL 130100Z AUTO 07003KT FEW030 SCT035 03/M01 A3009 RMK AO1 SLP217
METAR CYNL 130000Z AUTO 08005KT OVC033 03/M02 A3009 RMK AO1 SLP216
METAR CYNL 122300Z AUTO 09007KT FEW025 03/M02 A3009 RMK AO1 SLP217
METAR CYNL 122200Z AUTO 08005KT FEW029 03/M02 A3010 RMK AO1 SLP219
METAR CYNL 122100Z AUTO 06004KT CLR 03/M03 A3011 RMK AO1 SLP221
METAR CYNL 122000Z AUTO 06004KT FEW018 02/M01 A3011 RMK AO1 SLP222
SPECI CYNL 121930Z AUTO 06006KT SCT012 BKN240 02/M01 A3011 RMK AO1 SLP224
SPECI CYNL 121929Z AUTO 06006KT SCT012 BKN016 02/M02 A3011 RMK AO1 SLP224
SPECI CYNL 121924Z AUTO 05005KT FEW009 BKN013 02/M01 A3011 RMK AO1 SLP224
SPECI CYNL 121923Z AUTO 04005KT SCT009 BKN015 02/M01 A3011 RMK AO1 SLP224
SPECI CYNL 121915Z AUTO 06007KT SCT009 BKN012 02/M01 A3012 RMK AO1 SLP224
METAR CYNL 121900Z AUTO 08006KT BKN009 OVC013 01/M01 A3011 RMK AO1 SLP224
SPECI CYNL 121852Z AUTO 06006KT FEW006 BKN008 OVC013 01/M01 A3011 RMK AO1 SLP224
SPECI CYNL 121851Z AUTO 06006KT FEW006 SCT009 BKN010 01/M01 A3011 RMK AO1 SLP224
SPECI CYNL 121848Z AUTO 05005KT FEW006 BKN009 OVC013 01/M01 A3011 RMK AO1 SLP224
SPECI CYNL 121843Z AUTO 03007KT VV012 01/M01 A3011 RMK AO1 SLP225
SPECI CYNL 121835Z AUTO 04007KT FEW006 BKN009 OVC012 01/M00 A3011 RMK AO1 SLP223
SPECI CYNL 121834Z AUTO 05006KT VV010 01/M01 A3011 RMK AO1 SLP223
SPECI CYNL 121821Z AUTO 01006KT FEW006 BKN009 OVC012 01/M00 A3011 RMK AO1 SLP224
SPECI CYNL 121820Z AUTO 01006KT VV010 01/M00 A3011 RMK AO1 SLP224
SPECI CYNL 121816Z AUTO 02006KT SCT007 BKN009 OVC012 01/M00 A3012 RMK AO1 SLP224
SPECI CYNL 121814Z AUTO 03006KT SCT007 BKN010 OVC013 01/M00 A3012 RMK AO1 SLP224
SPECI CYNL 121813Z AUTO 03006KT SCT007 BKN009 OVC013 01/M00 A3012 RMK AO1 SLP224
SPECI CYNL 121809Z AUTO 02005KT SCT006 BKN010 OVC013 01/M00 A3012 RMK AO1 SLP224
SPECI CYNL 121803Z AUTO 03005KT VV009 01/M00 A3012 RMK AO1 SLP224
METAR CYNL 121800Z AUTO 03006KT VV010 01/M01 A3012 RMK AO1 SLP224
SPECI CYNL 121756Z AUTO 02005KT VV010 01/M00 A3012 RMK AO1 SLP224
SPECI CYNL 121750Z AUTO 04005KT VV009 01/M01 A3011 RMK AO1 SLP224
SPECI CYNL 121731Z AUTO 04004KT VV013 01/M01 A3012 RMK AO1 SLP225
SPECI CYNL 121724Z AUTO 03005KT FEW005 SCT010 OVC015 01/M01 A3012 RMK AO1 SLP224
SPECI CYNL 121721Z AUTO 03006KT VV014 01/M01 A3011 RMK AO1 SLP224
SPECI CYNL 121707Z AUTO 03004KT VV015 01/M01 A3011 RMK AO1 SLP222
SPECI CYNL 121705Z AUTO 03004KT VV014 01/M00 A3011 RMK AO1 SLP223
SPECI CYNL 121704Z AUTO 02004KT VV015 01/M00 A3011 RMK AO1 SLP222
METAR CYNL 121700Z AUTO 02004KT VV012 00/M01 A3011 RMK AO1 SLP223
SPECI CYNL 121642Z AUTO 03005KT VV010 00/M01 A3011 RMK AO1 SLP223
SPECI CYNL 121605Z AUTO 03005KT VV009 00/M01 A3011 RMK AO1 SLP222
METAR CYNL 121600Z AUTO 03004KT VV011 00/M01 A3010 RMK AO1 SLP222
SPECI CYNL 121551Z AUTO 03005KT VV010 00/M01 A3010 RMK AO1 SLP221
SPECI CYNL 121524Z AUTO 06003KT VV009 00/M01 A3010 RMK AO1 SLP221
SPECI CYNL 121520Z AUTO 07003KT VV010 M00/M01 A3010 RMK AO1 SLP220
SPECI CYNL 121516Z AUTO 07003KT VV009 M00/M01 A3010 RMK AO1 SLP220
SPECI CYNL 121514Z AUTO 07004KT VV010 M00/M01 A3010 RMK AO1 SLP220
METAR CYNL 121500Z AUTO 06004KT VV007 M00/M01 A3010 RMK AO1 SLP219
SPECI CYNL 121436Z AUTO 10003KT VV009 M00/M01 A3009 RMK AO1 SLP218
SPECI CYNL 121420Z AUTO 08002KT VV010 M00/M01 A3009 RMK AO1 SLP217
METAR CYNL 121400Z AUTO 10003KT OVC005 M00/M01 A3009 RMK AO1 SLP217
SPECI CYNL 121359Z AUTO 10003KT BKN005 OVC008 M00/M01 A3009 RMK AO1 SLP216
SPECI CYNL 121339Z AUTO 09004KT BKN004 OVC015 M00/M01 A3009 RMK AO1 SLP214
SPECI CYNL 121325Z AUTO 08004KT VV009 M00/M01 A3008 RMK AO1 SLP212
SPECI CYNL 121321Z AUTO 08003KT VV014 M00/M01 A3008 RMK AO1 SLP212
SPECI CYNL 121309Z AUTO 07003KT VV015 M00/M01 A3008 RMK AO1 SLP212
SPECI CYNL 121304Z AUTO 08003KT VV014 M00/M01 A3008 RMK AO1 SLP212
SPECI CYNL 121303Z AUTO 08003KT VV015 M00/M01 A3008 RMK AO1 SLP212
METAR CYNL 121300Z AUTO 00000KT FEW020 M00/M01 A3008 RMK AO1 SLP211
SPECI CYNL 121218Z AUTO 09003KT FEW006 SCT013 M00/M01 A3007 RMK AO1 SLP204
SPECI CYNL 121211Z AUTO 07005KT FEW006 SCT009 BKN017 M00/M02 A3007 RMK AO1 SLP204
SPECI CYNL 121206Z AUTO 06003KT VV009 M00/M02 A3007 RMK AO1 SLP205
METAR CYNL 121200Z AUTO 05003KT VV014 M00/M02 A3007 RMK AO1 SLP204
METAR CYNL 121100Z AUTO 04003KT VV020 M00/M02 A3007 RMK AO1 SLP203
SPECI CYNL 121048Z AUTO 05005KT VV021 M00/M02 A3006 RMK AO1 PRESRR SLP200
SPECI CYNL 121031Z AUTO 05004KT FEW006 SCT014 00/M02 A3006 RMK AO1 PRESRR SLP199
SPECI CYNL 121024Z AUTO 04003KT FEW006 SCT008 BKN014 00/M02 A3006 RMK AO1 PRESRR SLP199
SPECI CYNL 121019Z AUTO 04003KT VV009 00/M02 A3006 RMK AO1 PRESRR SLP198
SPECI CYNL 121011Z AUTO 04004KT VV014 00/M03 A3006 RMK AO1 PRESRR SLP198
METAR CYNL 121000Z AUTO 03005KT VV017 00/M03 A3006 RMK AO1 PRESRR SLP198
SPECI CYNL 120942Z AUTO 02005KT VV024 01/M04 A3005 RMK AO1 SLP194
SPECI CYNL 120934Z AUTO 02005KT VV027 01/M04 A3005 RMK AO1 SLP192
METAR CYNL 120900Z AUTO 02005KT CLR 01/M03 A3004 RMK AO1 SLP188
METAR CYNL 120800Z AUTO 04002KT CLR 01/M03 A3002 RMK AO1 SLP182
METAR CYNL 120700Z AUTO 03004KT CLR 01/M03 A3000 RMK AO1 SLP177
METAR CYNL 120600Z AUTO 01005KT CLR 01/M04 A2998 RMK AO1 SLP170
METAR CYNL 120500Z AUTO 35005KT CLR 01/M04 A2996 RMK AO1 SLP164
METAR CYNL 120400Z AUTO 34005KT CLR 01/M04 A2995 RMK AO1 SLP160
METAR CYNL 120300Z AUTO 34006KT CLR 02/M04 A2993 RMK AO1 PRESRR SLP154
METAR CYNL 120200Z AUTO 32004KT CLR 04/M03 A2991 RMK AO1 PRESRR SLP144
METAR CYNL 120100Z AUTO 31006KT SCT054 06/M04 A2989 RMK AO1 SLP136
METAR CYNL 120000Z AUTO 33011KT BKN050 07/M04 A2986 RMK AO1 PRESRR SLP129
METAR CYNL 112300Z AUTO 31009G16KT FEW056 08/M04 A2984 RMK AO1 SLP120
METAR CYNL 112200Z AUTO 33007KT BKN052 10/M03 A2982 RMK AO1 PRESRR SLP112
METAR CYNL 112100Z AUTO 29009G17KT FEW048 09/M03 A2980 RMK AO1 SLP106
METAR CYNL 112000Z AUTO 32008G16KT FEW036 SCT130 09/M01 A2979 RMK AO1 PRESRR SLP102
SPECI CYNL 111905Z AUTO 34012KT FEW037 09/M00 A2976 RMK AO1 WSHFT (19)05 SLP093
METAR CYNL 111900Z AUTO 30010G18KT CLR 09/M00 A2976 RMK AO1 SLP093
METAR CYNL 111800Z AUTO 31009G17KT FEW027 SCT037 08/01 A2976 RMK AO1 SLP091
SPECI CYNL 111720Z AUTO 30009G19KT FEW016 SCT028 BKN052 07/02 A2976 RMK AO1 SLP093
SPECI CYNL 111719Z AUTO 30009G19KT FEW016 SCT022 BKN028 07/02 A2976 RMK AO1 SLP093
METAR CYNL 111700Z AUTO 31006G16KT SCT012 BKN052 06/03 A2975 RMK AO1 SLP092
SPECI CYNL 111656Z AUTO 31008KT SCT012 BKN026 06/03 A2975 RMK AO1 SLP092
SPECI CYNL 111650Z AUTO 31004KT SCT012 BKN017 06/03 A2975 RMK AO1 SLP092
SPECI CYNL 111647Z AUTO 32007KT BKN012 06/03 A2975 RMK AO1 SLP092
SPECI CYNL 111646Z AUTO 32009KT SCT012 BKN017 06/03 A2975 RMK AO1 SLP092
SPECI CYNL 111643Z AUTO 33008KT BKN013 06/03 A2975 RMK AO1 SLP092
SPECI CYNL 111642Z AUTO 32006KT SCT013 BKN016 06/03 A2975 RMK AO1 SLP092
SPECI CYNL 111641Z AUTO 31006KT BKN013 06/03 A2975 RMK AO1 SLP092
SPECI CYNL 111638Z AUTO 31005KT SCT013 BKN049 06/03 A2975 RMK AO1 SLP092
SPECI CYNL 111612Z AUTO 31007KT BKN014 BKN060 06/03 A2974 RMK AO1 SLP088
METAR CYNL 111600Z AUTO 30006KT SCT014 BKN019 OVC034 06/03 A2974 RMK AO1 SLP087
SPECI CYNL 111553Z AUTO 31007KT FEW014 BKN018 BKN034 06/03 A2974 RMK AO1 SLP085
METAR CYNL 111500Z AUTO 29006KT FEW026 SCT084 06/03 A2972 RMK AO1 SLP082
METAR CYNL 111400Z AUTO 27005KT FEW070 05/02 A2972 RMK AO1 SLP083
METAR CYNL 111300Z AUTO 25004KT CLR 04/02 A2972 RMK AO1 SLP081
METAR CYNL 111200Z AUTO 23003KT CLR 04/02 A2972 RMK AO1 SLP081
METAR CYNL 111100Z AUTO 24002KT CLR 04/02 A2972 RMK AO1 SLP080
METAR CYNL 111000Z AUTO 00000KT CLR 03/02 A2973 RMK AO1 SLP083
METAR CYNL 110900Z AUTO 22002KT CLR 03/02 A2973 RMK AO1 SLP084
METAR CYNL 110800Z AUTO 24002KT BKN160 03/02 A2974 RMK AO1 SLP088
METAR CYNL 110700Z AUTO 00000KT BKN170 03/02 A2975 RMK AO1 SLP090
METAR CYNL 110600Z AUTO 00000KT FEW042 BKN170 03/02 A2977 RMK AO1 SLP095
METAR CYNL 110500Z AUTO 00000KT FEW042 03/02 A2978 RMK AO1 SLP101
METAR CYNL 110400Z AUTO 18004KT CLR 04/02 A2979 RMK AO1 SLP103
METAR CYNL 110300Z AUTO 00000KT CLR 03/01 A2980 RMK AO1 SLP108
METAR CYNL 110200Z AUTO 00000KT CLR 05/01 A2981 RMK AO1 SLP109
METAR CYNL 110100Z AUTO 00000KT SCT035 07/01 A2981 RMK AO1 SLP111
METAR CYNL 110000Z AUTO 25006KT SCT033 07/00 A2982 RMK AO1 SLP116
METAR CYNL 102300Z AUTO 25004KT OVC032 07/00 A2983 RMK AO1 PRESFR SLP120
SPECI CYNL 102237Z AUTO 24005KT OVC030 07/01 A2984 RMK AO1 SLP123
METAR CYNL 102200Z AUTO 25006KT OVC027 07/00 A2985 RMK AO1 SLP128
METAR CYNL 102100Z AUTO 25007KT 210V280 OVC027 07/01 A2986 RMK AO1 SLP131
SPECI CYNL 102014Z AUTO 23006KT BKN029 07/01 A2987 RMK AO1 SLP134
METAR CYNL 102000Z AUTO 23008KT SCT031 07/00 A2987 RMK AO1 SLP135
SPECI CYNL 101936Z AUTO 19008KT BKN030 09/01 A2988 RMK AO1 SLP135
METAR CYNL 101900Z AUTO 21003KT 160V250 BKN028 07/M00 A2989 RMK AO1 SLP140
SPECI CYNL 101849Z AUTO 00000KT BKN027 07/00 A2989 RMK AO1 PRESFR SLP142
SPECI CYNL 101839Z AUTO 17007KT 140V210 SCT026 07/00 A2990 RMK AO1 PRESFR SLP142
SPECI CYNL 101833Z AUTO 19005KT 140V230 BKN025 07/00 A2990 RMK AO1 PRESFR SLP143
SPECI CYNL 101832Z AUTO 20005KT 160V240 BKN024 07/00 A2990 RMK AO1 PRESFR SLP144
SPECI CYNL 101823Z AUTO 24002KT SCT023 06/00 A2990 RMK AO1 PRESFR SLP145
METAR CYNL 101800Z AUTO 00000KT BKN023 06/00 A2991 RMK AO1 PRESFR SLP147
METAR CYNL 101700Z AUTO 21003KT 160V270 BKN019 06/01 A2994 RMK AO1 SLP157
METAR CYNL 101600Z AUTO 32005KT BKN018 05/01 A2995 RMK AO1 SLP160
SPECI CYNL 101529Z AUTO 29003KT SCT013 BKN018 05/02 A2995 RMK AO1 SLP161
SPECI CYNL 101527Z AUTO 32002KT BKN013 05/01 A2995 RMK AO1 SLP161
SPECI CYNL 101526Z AUTO 33003KT SCT013 BKN018 05/02 A2995 RMK AO1 SLP161
METAR CYNL 101500Z AUTO 27003KT CLR 05/02 A2996 RMK AO1 SLP163
METAR CYNL 101400Z AUTO 00000KT CLR 03/02 A2996 RMK AO1 SLP166
METAR CYNL 101300Z AUTO 29002KT CLR 00/M00 A2996 RMK AO1 SLP169
METAR CYNL 101200Z AUTO 00000KT CLR 00/00 A2997 RMK AO1 SLP170
METAR CYNL 101100Z AUTO 30002KT CLR 01/00 A2997 RMK AO1 SLP172
SPECI CYNL 101029Z AUTO 30004KT SCT015 01/00 A2998 RMK AO1 SLP173
METAR CYNL 101000Z AUTO 00000KT BKN016 01/00 A2998 RMK AO1 SLP173
METAR CYNL 100900Z AUTO 00000KT OVC019 01/01 A2998 RMK AO1 SLP172
METAR CYNL 100800Z AUTO 00000KT OVC017 01/01 A2999 RMK AO1 SLP174
SPECI CYNL 100734Z AUTO 00000KT BKN018 01/01 A2999 RMK AO1 SLP176
METAR CYNL 100700Z AUTO 34002KT CLR 01/01 A2999 RMK AO1 SLP177
METAR CYNL 100600Z AUTO 33002KT CLR 02/01 A3000 RMK AO1 SLP178
METAR CYNL 100500Z AUTO 03003KT CLR 03/02 A3000 RMK AO1 SLP178
SPECI CYNL 100424Z AUTO 02004KT FEW009 SCT012 04/02 A3000 RMK AO1 SLP177
SPECI CYNL 100421Z AUTO 03004KT SCT010 04/02 A3000 RMK AO1 SLP177
SPECI CYNL 100417Z AUTO 02004KT SCT010 BKN015 04/02 A3000 RMK AO1 SLP176
METAR CYNL 100400Z AUTO 03006KT OVC010 04/02 A3000 RMK AO1 SLP176
SPECI CYNL 100332Z AUTO 02008KT OVC010 04/02 A3000 RMK AO1 SLP175
METAR CYNL 100300Z AUTO 02008KT OVC009 04/02 A3000 RMK AO1 SLP175
METAR CYNL 100200Z AUTO 01009KT OVC009 05/03 A2998 RMK AO1 SLP168
SPECI CYNL 100156Z AUTO 01010KT OVC009 05/03 A2998 RMK AO1 PRESRR SLP167
SPECI CYNL 100130Z AUTO 01009KT BKN010 OVC016 05/03 A2998 RMK AO1 PRESRR SLP165
METAR CYNL 100100Z AUTO 01009G16KT BKN008 OVC010 05/04 A2997 RMK AO1 PRESRR SLP162
SPECI CYNL 100039Z AUTO 01008G15KT BKN008 OVC012 05/04 A2996 RMK AO1 SLP158
SPECI CYNL 100038Z AUTO 01011KT SCT008 BKN010 OVC012 05/04 A2996 RMK AO1 SLP158
SPECI CYNL 100035Z AUTO 01010KT BKN009 OVC012 05/04 A2996 RMK AO1 SLP158
METAR CYNL 100000Z AUTO 01010KT FEW008 BKN010 OVC013 06/04 A2995 RMK AO1 SLP153
SPECI CYNL 092347Z AUTO 00010G16KT FEW008 OVC010 06/04 A2994 RMK AO1 SLP151
SPECI CYNL 092334Z AUTO 01007G17KT OVC009 06/04 A2994 RMK AO1 SLP150
SPECI CYNL 092330Z AUTO 02012KT FEW007 BKN010 OVC011 06/04 A2993 RMK AO1 SLP149
SPECI CYNL 092329Z AUTO 02011G17KT FEW007 BKN009 OVC011 06/04 A2993 RMK AO1 SLP149
SPECI CYNL 092328Z AUTO 02012G17KT FEW007 OVC010 06/04 A2994 RMK AO1 SLP150
METAR CYNL 092300Z AUTO 01010G18KT BKN006 OVC008 05/04 A2993 RMK AO1 SLP148
SPECI CYNL 092227Z AUTO 02010G17KT BKN007 OVC011 06/05 A2992 RMK AO1 SLP145
SPECI CYNL 092210Z AUTO 02010G16KT SCT007 BKN010 OVC013 06/05 A2992 RMK AO1 SLP143
METAR CYNL 092200Z AUTO 02010G18KT SCT007 BKN008 OVC012 06/05 A2992 RMK AO1 SLP143
SPECI CYNL 092137Z AUTO 02010G17KT SCT006 BKN008 OVC010 06/05 A2992 RMK AO1 SLP142
METAR CYNL 092100Z AUTO 01011KT 06/05 A2991 RMK AO1 SLP140
METAR CYNL 092000Z AUTO 02011G18KT BKN006 OVC012 06/05 A2991 RMK AO1 SLP139
SPECI CYNL 091906Z AUTO 02008G18KT SCT007 BKN009 OVC013 06/05 A2990 RMK AO1 SLP135
SPECI CYNL 091905Z AUTO 03009G18KT SCT007 BKN010 OVC013 06/05 A2990 RMK AO1 SLP135
SPECI CYNL 091904Z AUTO 03010G18KT BKN007 OVC013 06/05 A2990 RMK AO1 SLP135
METAR CYNL 091900Z AUTO 03013KT SCT006 BKN010 BKN013 06/05 A2989 RMK AO1 SLP134
SPECI CYNL 091858Z AUTO 02014KT SCT006 BKN010 BKN013 06/05 A2989 RMK AO1 SLP133
METAR CYNL 091800Z AUTO 01013KT BKN007 BKN011 OVC015 06/05 A2988 RMK AO1 PRESRR SLP128
SPECI CYNL 091741Z AUTO 02010G20KT BKN007 BKN016 OVC027 06/05 A2987 RMK AO1 SLP126
SPECI CYNL 091736Z AUTO 02012G20KT SCT007 BKN011 BKN014 06/05 A2987 RMK AO1 SLP125
METAR CYNL 091700Z AUTO 02010G17KT BKN007 OVC012 07/06 A2986 RMK AO1 SLP120
SPECI CYNL 091652Z AUTO 02011G17KT SCT006 BKN008 BKN012 07/06 A2985 RMK AO1 SLP119
SPECI CYNL 091635Z AUTO 03010G21KT SCT007 BKN011 OVC015 07/06 A2985 RMK AO1 SLP117
METAR CYNL 091600Z AUTO 03012G19KT BKN007 OVC009 07/06 A2984 RMK AO1 SLP113
METAR CYNL 091500Z AUTO 03009G16KT BKN007 BKN011 OVC015 08/07 A2983 RMK AO1 SLP109
SPECI CYNL 091458Z AUTO 03011KT BKN008 BKN011 OVC015 08/07 A2983 RMK AO1 SLP109
SPECI CYNL 091454Z AUTO 03010G16KT SCT008 BKN011 OVC015 08/07 A2983 RMK AO1 SLP109
METAR CYNL 091400Z AUTO 02011G17KT OVC006 08/07 A2981 RMK AO1 SLP103
METAR CYNL 091300Z AUTO 03013KT OVC007 08/07 A2980 RMK AO1 SLP097
METAR CYNL 091200Z AUTO 03010G18KT OVC008 09/07 A2978 RMK AO1 SLP091
METAR CYNL 091100Z AUTO 02009KT BKN008 BKN010 OVC046 09/07 A2979 RMK AO1 SLP090
SPECI CYNL 091042Z AUTO 02008KT BKN008 OVC042 09/07 A2979 RMK AO1 SLP091
SPECI CYNL 091026Z AUTO 02010KT FEW008 OVC042 09/07 A2978 RMK AO1 SLP089
METAR CYNL 091000Z AUTO 02009KT OVC032 09/07 A2979 RMK AO1 SLP092
METAR CYNL 090900Z AUTO 04007KT OVC074 09/07 A2979 RMK AO1 SLP090
METAR CYNL 090800Z AUTO 02006KT BKN062 09/07 A2980 RMK AO1 SLP092
METAR CYNL 090700Z AUTO 03006KT OVC035 10/08 A2980 RMK AO1 SLP094
METAR CYNL 090600Z AUTO 02006KT OVC034 10/08 A2981 RMK AO1 SLP098
METAR CYNL 090500Z AUTO 03006KT SCT040 BKN068 10/08 A2983 RMK AO1 SLP104
METAR CYNL 090400Z AUTO 06006KT BKN041 11/08 A2983 RMK AO1 SLP107
METAR CYNL 090300Z AUTO 05007KT SCT056 10/08 A2984 RMK AO1 SLP111
METAR CYNL 090200Z AUTO 04006KT FEW098 SCT130 11/08 A2985 RMK AO1 SLP112
METAR CYNL 090100Z AUTO 06005KT FEW120 12/08 A2985 RMK AO1 SLP114
METAR CYNL 090000Z AUTO 04006KT FEW140 13/08 A2985 RMK AO1 SLP115
METAR CYNL 082300Z AUTO 06006KT FEW120 12/08 A2987 RMK AO1 SLP120
METAR CYNL 082200Z AUTO 10005KT FEW130 14/08 A2988 RMK AO1 SLP122
METAR CYNL 082100Z AUTO 14004KT FEW140 14/08 A2989 RMK AO1 SLP127
METAR CYNL 082000Z AUTO 13004KT FEW078 14/08 A2991 RMK AO1 PRESFR SLP132
METAR CYNL 081900Z AUTO 11006KT FEW078 12/07 A2993 RMK AO1 SLP141
METAR CYNL 081800Z AUTO 14005KT FEW082 11/07 A2994 RMK AO1 PRESFR SLP146
METAR CYNL 081700Z AUTO 15006KT FEW078 11/07 A2996 RMK AO1 SLP155
METAR CYNL 081600Z AUTO 14008KT FEW076 10/07 A2997 RMK AO1 SLP159
METAR CYNL 081500Z AUTO 17009KT FEW012 SCT088 10/07 A2999 RMK AO1 SLP167
SPECI CYNL 081425Z AUTO 16010KT SCT010 09/06 A3000 RMK AO1 SLP172
SPECI CYNL 081417Z AUTO 15008KT BKN010 09/07 A3001 RMK AO1 SLP173
SPECI CYNL 081406Z AUTO 16006KT SCT010 09/07 A3001 RMK AO1 SLP173
SPECI CYNL 081405Z AUTO 15007KT BKN010 09/07 A3001 RMK AO1 SLP173
METAR CYNL 081400Z AUTO 15008KT BKN009 09/06 A3000 RMK AO1 SLP173
SPECI CYNL 081353Z AUTO 15009KT BKN009 09/06 A3001 RMK AO1 PRESFR SLP174
SPECI CYNL 081332Z AUTO 15006KT FEW009 09/07 A3001 RMK AO1 PRESFR SLP173
METAR CYNL 081300Z AUTO 14007KT SCT056 08/06 A3002 RMK AO1 PRESFR SLP178
METAR CYNL 081200Z AUTO 13006KT FEW180 08/06 A3004 RMK AO1 PRESFR SLP187
METAR CYNL 081100Z AUTO 15004KT FEW150 SCT180 08/06 A3006 RMK AO1 SLP194
METAR CYNL 081000Z AUTO 14004KT OVC068 08/06 A3008 RMK AO1 PRESFR SLP200
METAR CYNL 080900Z AUTO 15007KT BKN056 BKN072 08/06 A3011 RMK AO1 PRESFR SLP209
METAR CYNL 080800Z AUTO 14004KT OVC066 08/06 A3013 RMK AO1 SLP215
METAR CYNL 080700Z AUTO 16006KT OVC064 08/06 A3014 RMK AO1 PRESFR SLP217
METAR CYNL 080600Z AUTO 15005KT OVC062 08/05 A3016 RMK AO1 SLP224
METAR CYNL 080500Z AUTO 16004KT BKN056 BKN078 07/05 A3017 RMK AO1 SLP228
METAR CYNL 080400Z AUTO 13005KT OVC054 07/05 A3018 RMK AO1 SLP233
METAR CYNL 080300Z AUTO 12004KT FEW066 SCT084 06/04 A3019 RMK AO1 SLP239
METAR CYNL 080200Z AUTO 14006KT BKN070 06/04 A3020 RMK AO1 SLP243
METAR CYNL 080100Z AUTO 13006KT FEW027 OVC084 06/04 A3021 RMK AO1 PRESFR SLP249
SPECI CYNL 080044Z AUTO 13009KT SCT027 OVC080 06/04 A3022 RMK AO1 PRESFR SLP254
METAR CYNL 080000Z AUTO 13007KT OVC029 06/04 A3024 RMK AO1 PRESFR SLP262
SPECI CYNL 072351Z AUTO 13009KT OVC029 06/04 A3024 RMK AO1 PRESFR SLP266
METAR CYNL 072300Z AUTO 12008KT FEW020 BKN031 BKN036 06/04 A3026 RMK AO1 PRESFR SLP274
METAR CYNL 072200Z AUTO 12008G15KT FEW033 OVC052 06/04 A3029 RMK AO1 PRESFR SLP278
METAR CYNL 072100Z AUTO 14008G15KT FEW027 SCT043 BKN070 07/03 A3030 RMK AO1 PRESFR SLP283
METAR CYNL 072000Z AUTO 14013G21KT BKN062 08/00 A3033 RMK AO1 SLP289
METAR CYNL 071900Z AUTO 14007KT BKN072 07/01 A3035 RMK AO1 SLP296
METAR CYNL 071800Z AUTO 16010KT BKN080 07/01 A3036 RMK AO1 SLP302
METAR CYNL 071700Z AUTO 16008KT FEW082 07/01 A3037 RMK AO1 SLP306
METAR CYNL 071600Z AUTO 16008KT BKN094 06/01 A3038 RMK AO1 SLP310
METAR CYNL 071500Z AUTO 16005KT FEW230 05/02 A3039 RMK AO1 SLP314
METAR CYNL 071400Z AUTO 13002KT BKN140 03/01 A3040 RMK AO1 SLP320
METAR CYNL 071300Z AUTO 00000KT SCT140 00/M01 A3041 RMK AO1 SLP323
METAR CYNL 071200Z AUTO 12003KT CLR M02/M03 A3042 RMK AO1 SLP323
METAR CYNL 071100Z AUTO 12002KT CLR 00/M01 A3043 RMK AO1 SLP323
METAR CYNL 071000Z AUTO 00000KT CLR 01/M01 A3043 RMK AO1 SLP324
METAR CYNL 070900Z AUTO 19003KT CLR 02/M01 A3044 RMK AO1 SLP325
METAR CYNL 070800Z AUTO 17002KT CLR 01/M01 A3044 RMK AO1 SLP326
METAR CYNL 070700Z AUTO 00000KT CLR M01/M02 A3044 RMK AO1 SLP330
METAR CYNL 070600Z AUTO 00000KT CLR M01/M02 A3044 RMK AO1 SLP331
METAR CYNL 070500Z AUTO 00000KT CLR 00/M01 A3044 RMK AO1 SLP330
METAR CYNL 070400Z AUTO 00000KT CLR 01/M02 A3043 RMK AO1 SLP330
METAR CYNL 070300Z AUTO 00000KT CLR 02/M01 A3042 RMK AO1 SLP327
METAR CYNL 070200Z AUTO 01003KT CLR 05/M00 A3042 RMK AO1 SLP321
METAR CYNL 070100Z AUTO 34004KT CLR 08/M02 A3042 RMK AO1 SLP318
METAR CYNL 070000Z AUTO 30007KT CLR 09/M03 A3042 RMK AO1 SLP319
METAR CYNL 062300Z AUTO 31006KT CLR 09/M03 A3042 RMK AO1 SLP320
METAR CYNL 062200Z AUTO 32005KT CLR 09/M03 A3042 RMK AO1 SLP321
METAR CYNL 062100Z AUTO 29009KT 250V330 CLR 08/M03 A3042 RMK AO1 SLP322
METAR CYNL 062000Z AUTO 30009KT 270V340 CLR 08/M03 A3043 RMK AO1 SLP323
METAR CYNL 061900Z AUTO 30007KT CLR 07/M03 A3043 RMK AO1 SLP325
METAR CYNL 061800Z AUTO 33008KT SCT032 06/M02 A3043 RMK AO1 SLP325
SPECI CYNL 061730Z AUTO 33007G16KT FEW007 SCT011 03/M00 A3043 RMK AO1 SLP328
SPECI CYNL 061725Z AUTO 34007G16KT VV012 04/00 A3043 RMK AO1 SLP328
SPECI CYNL 061703Z AUTO 30007KT FEW009 SCT021 04/M00 A3043 RMK AO1 SLP326
METAR CYNL 061700Z AUTO 30008KT FEW011 SCT027 04/M01 A3043 RMK AO1 SLP326
SPECI CYNL 061647Z AUTO 34006KT FEW008 SCT019 04/M01 A3042 RMK AO1 SLP323
SPECI CYNL 061644Z AUTO 30007KT FEW008 SCT019 BKN028 04/M01 A3042 RMK AO1 SLP323
SPECI CYNL 061610Z AUTO 34006KT OVC025 03/M01 A3042 RMK AO1 SLP321
SPECI CYNL 061609Z AUTO 35009G15KT BKN024 OVC030 03/M01 A3041 RMK AO1 SLP322
SPECI CYNL 061608Z AUTO 34010G15KT OVC025 03/M01 A3041 RMK AO1 SLP321
METAR CYNL 061600Z AUTO 34010G18KT OVC024 03/M01 A3041 RMK AO1 SLP322
SPECI CYNL 061554Z AUTO 35013KT OVC024 03/M01 A3041 RMK AO1 SLP320
SPECI CYNL 061507Z AUTO 29008KT BKN028 04/M02 A3040 RMK AO1 SLP316
METAR CYNL 061500Z AUTO 29008KT SCT025 OVC034 04/M02 A3040 RMK AO1 SLP315
METAR CYNL 061400Z AUTO 28005KT BKN031 03/M01 A3039 RMK AO1 SLP313
METAR CYNL 061300Z AUTO 32006KT OVC034 02/M03 A3037 RMK AO1 SLP307
METAR CYNL 061200Z AUTO 33005KT OVC034 01/M03 A3036 RMK AO1 SLP301
METAR CYNL 061100Z AUTO 30005KT CLR 01/M02 A3034 RMK AO1 SLP296
SPECI CYNL 061033Z AUTO 29005KT SCT021 01/M01 A3033 RMK AO1 SLP292
SPECI CYNL 061028Z AUTO 31005KT SCT021 BKN026 01/M01 A3033 RMK AO1 SLP291
METAR CYNL 061000Z AUTO 31005KT FEW014 02/M01 A3032 RMK AO1 SLP289
SPECI CYNL 060902Z AUTO 29008KT SCT013 02/01 A3031 RMK AO1 SLP280
SPECI CYNL 060901Z AUTO 29007KT SCT013 BKN021 03/01 A3031 RMK AO1 SLP280
METAR CYNL 060900Z AUTO 29007KT BKN014 03/01 A3031 RMK AO1 SLP280
SPECI CYNL 060856Z AUTO 29006KT BKN013 03/01 A3031 RMK AO1 SLP279
SPECI CYNL 060852Z AUTO 28008KT SCT013 BKN017 03/01 A3031 RMK AO1 SLP279
SPECI CYNL 060851Z AUTO 27006KT BKN013 03/01 A3031 RMK AO1 SLP279
SPECI CYNL 060839Z AUTO 32007KT SCT015 BKN020 02/00 A3030 RMK AO1 SLP279
METAR CYNL 060800Z AUTO 34005KT FEW009 SCT023 02/01 A3030 RMK AO1 SLP276
SPECI CYNL 060759Z AUTO 34006KT FEW009 SCT023 BKN027 03/01 A3030 RMK AO1 SLP276
SPECI CYNL 060746Z AUTO 32005KT SCT009 BKN018 03/01 A3029 RMK AO1 SLP275
SPECI CYNL 060736Z AUTO 33008KT SCT009 BKN012 OVC023 03/01 A3029 RMK AO1 SLP273
SPECI CYNL 060718Z AUTO 34007G16KT FEW009 BKN016 BKN023 04/02 A3029 RMK AO1 SLP271
METAR CYNL 060700Z AUTO 32004KT BKN019 04/02 A3028 RMK AO1 SLP268
SPECI CYNL 060647Z AUTO 32005KT BKN019 BKN043 04/02 A3028 RMK AO1 PRESRR SLP268
SPECI CYNL 060646Z AUTO 32005KT SCT019 BKN043 04/02 A3028 RMK AO1 PRESRR SLP268
SPECI CYNL 060644Z AUTO 33005KT BKN019 BKN043 03/02 A3028 RMK AO1 PRESRR SLP268
SPECI CYNL 060642Z AUTO 33004KT SCT019 BKN025 BKN044 03/02 A3027 RMK AO1 PRESRR SLP267
SPECI CYNL 060609Z AUTO 33005KT FEW017 SCT022 BKN047 04/02 A3027 RMK AO1 PRESRR SLP265
METAR CYNL 060600Z AUTO 33007KT SCT017 BKN023 04/02 A3027 RMK AO1 PRESRR SLP265
SPECI CYNL 060535Z AUTO 30006KT FEW018 BKN023 05/02 A3026 RMK AO1 SLP260
METAR CYNL 060500Z AUTO 29007KT FEW023 SCT042 05/02 A3025 RMK AO1 SLP256
SPECI CYNL 060453Z AUTO 29007KT SCT023 BKN041 05/02 A3024 RMK AO1 PRESRR SLP256
SPECI CYNL 060450Z AUTO 30009KT SCT023 BKN029 05/02 A3024 RMK AO1 PRESRR SLP256
SPECI CYNL 060449Z AUTO 30007KT BKN023 05/02 A3024 RMK AO1 PRESRR SLP256
SPECI CYNL 060444Z AUTO 30008KT SCT024 BKN029 05/02 A3024 RMK AO1 PRESRR SLP256
SPECI CYNL 060443Z AUTO 29006KT SCT024 BKN030 05/02 A3024 RMK AO1 PRESRR SLP256
SPECI CYNL 060441Z AUTO 30009KT BKN024 05/02 A3024 RMK AO1 PRESRR SLP256
METAR CYNL 060400Z AUTO 29007KT CLR 05/01 A3023 RMK AO1 PRESRR SLP251
METAR CYNL 060300Z AUTO 30010G15KT FEW025 SCT032 BKN054 06/01 A3021 RMK AO1 SLP244
METAR CYNL 060200Z AUTO 28008G16KT CLR 06/01 A3019 RMK AO1 SLP238
METAR CYNL 060100Z AUTO 28015G22KT CLR 07/M00 A3016 RMK AO1 PRESRR SLP231
METAR CYNL 060000Z AUTO 27012G20KT FEW031 07/01 A3014 RMK AO1 SLP225
METAR CYNL 052300Z AUTO 29016G23KT FEW029 SCT034 07/01 A3013 RMK AO1 PRESRR SLP221
METAR CYNL 052200Z AUTO 28011G26KT SCT036 09/00 A3009 RMK AO1 PRESRR SLP208
METAR CYNL 052100Z AUTO 28016G27KT FEW043 09/M01 A3007 RMK AO1 PRESRR SLP199
METAR CYNL 052000Z AUTO 29016G28KT FEW037 10/M00 A3004 RMK AO1 SLP191
SPECI CYNL 051916Z AUTO 28016G25KT SCT024 BKN034 09/02 A3003 RMK AO1 SLP188
SPECI CYNL 051911Z AUTO 29014G26KT BKN024 BKN033 09/03 A3003 RMK AO1 SLP188
SPECI CYNL 051909Z AUTO 28013G26KT FEW021 BKN026 09/03 A3003 RMK AO1 SLP188
SPECI CYNL 051903Z AUTO 29013G26KT BKN024 BKN034 09/04 A3003 RMK AO1 SLP187
METAR CYNL 051900Z AUTO 29011G23KT BKN026 BKN035 09/04 A3003 RMK AO1 SLP186
SPECI CYNL 051834Z AUTO 27015G25KT BKN027 OVC036 10/03 A3001 RMK AO1 SLP181
SPECI CYNL 051831Z AUTO 27013G21KT SCT025 BKN033 OVC038 10/03 A3001 RMK AO1 SLP181
SPECI CYNL 051823Z AUTO 27013G21KT BKN025 OVC034 09/04 A3001 RMK AO1 SLP181
SPECI CYNL 051805Z AUTO 28010G19KT BKN023 BKN034 10/04 A3001 RMK AO1 SLP180
SPECI CYNL 051802Z AUTO 29011G19KT SCT023 BKN034 10/04 A3001 RMK AO1 SLP180
METAR CYNL 051800Z AUTO 30008G20KT BKN022 BKN034 10/04 A3001 RMK AO1 SLP180
SPECI CYNL 051732Z AUTO 28009G15KT SCT014 OVC019 09/05 A3001 RMK AO1 SLP180
METAR CYNL 051700Z AUTO 27009G17KT BKN012 OVC015 08/05 A3000 RMK AO1 SLP177
SPECI CYNL 051634Z AUTO 25008KT BKN011 08/05 A2999 RMK AO1 SLP174
METAR CYNL 051600Z AUTO 25009KT FEW086 07/05 A2999 RMK AO1 SLP176
METAR CYNL 051500Z AUTO 23006KT FEW031 SCT058 06/05 A2999 RMK AO1 SLP175
SPECI CYNL 051407Z AUTO 22004KT FEW020 SCT031 05/03 A2999 RMK AO1 SLP175
SPECI CYNL 051405Z AUTO 22005KT VV029 05/03 A2999 RMK AO1 SLP175
METAR CYNL 051400Z AUTO 23004KT FEW031 05/03 A2999 RMK AO1 SLP176
METAR CYNL 051300Z AUTO 22006KT FEW120 04/02 A2999 RMK AO1 SLP177
METAR CYNL 051200Z AUTO 19006KT CLR 02/01 A3000 RMK AO1 SLP179
METAR CYNL 051100Z AUTO 19007KT CLR 02/01 A3002 RMK AO1 SLP184
METAR CYNL 051000Z AUTO 20004KT CLR 02/M00 A3004 RMK AO1 SLP193
METAR CYNL 050900Z AUTO 21004KT CLR 01/00 A3006 RMK AO1 SLP199
METAR CYNL 050800Z AUTO 22003KT CLR 01/00 A3007 RMK AO1 SLP202
METAR CYNL 050700Z AUTO 24002KT CLR 01/M00 A3008 RMK AO1 SLP207
METAR CYNL 050600Z AUTO 26003KT CLR 01/M01 A3009 RMK AO1 SLP212
METAR CYNL 050500Z AUTO 27004KT CLR 02/M01 A3010 RMK AO1 SLP213
METAR CYNL 050400Z AUTO 27004KT CLR 02/M01 A3009 RMK AO1 SLP212
METAR CYNL 050300Z AUTO 27003KT CLR 02/M01 A3009 RMK AO1 SLP212
METAR CYNL 050200Z AUTO 27002KT CLR 04/M01 A3009 RMK AO1 SLP210
METAR CYNL 050100Z AUTO 29007KT CLR 05/M03 A3009 RMK AO1 SLP209
METAR CYNL 050000Z AUTO 32008KT FEW035 06/M03 A3009 RMK AO1 SLP208
METAR CYNL 042300Z AUTO 29010G16KT BKN032 05/M03 A3009 RMK AO1 SLP210
METAR CYNL 042200Z AUTO 30008G17KT OVC032 05/M02 A3008 RMK AO1 SLP205
METAR CYNL 042100Z AUTO 32010G18KT BKN034 05/M03 A3008 RMK AO1 SLP202
METAR CYNL 042000Z AUTO 31010G21KT SCT036 05/M02 A3007 RMK AO1 SLP198
METAR CYNL 041900Z AUTO 31011G18KT FEW016 04/00 A3006 RMK AO1 SLP196
SPECI CYNL 041817Z AUTO 32010G18KT FEW011 SCT018 BKN190 04/01 A3005 RMK AO1 SLP192
SPECI CYNL 041814Z AUTO 31011G18KT FEW010 BKN018 04/01 A3005 RMK AO1 SLP192
SPECI CYNL 041805Z AUTO 32013G20KT FEW007 SCT019 04/01 A3005 RMK AO1 SLP191
METAR CYNL 041800Z AUTO 33009G20KT FEW019 SCT200 04/01 A3005 RMK AO1 SLP191
SPECI CYNL 041712Z AUTO 33014G21KT FEW010 SCT018 03/01 A3005 RMK AO1 SLP191
SPECI CYNL 041709Z AUTO 33010G21KT FEW012 SCT018 BKN023 04/01 A3005 RMK AO1 SLP191
METAR CYNL 041700Z AUTO 32011G18KT FEW012 04/00 A3004 RMK AO1 SLP189
SPECI CYNL 041652Z AUTO 33011G18KT FEW011 SCT020 03/00 A3004 RMK AO1 SLP190
SPECI CYNL 041643Z AUTO 33009G23KT FEW012 BKN020 04/01 A3004 RMK AO1 SLP189
SPECI CYNL 041642Z AUTO 33012G23KT FEW012 SCT020 BKN025 04/01 A3004 RMK AO1 SLP189
SPECI CYNL 041601Z AUTO 33012G19KT BKN015 OVC019 03/M00 A3003 RMK AO1 SLP187
METAR CYNL 041600Z AUTO 33012G19KT OVC014 03/M00 A3003 RMK AO1 SLP187
METAR CYNL 041500Z AUTO 32013G26KT BKN011 OVC014 02/00 A3002 RMK AO1 PRESRR SLP181
SPECI CYNL 041413Z AUTO 32012G20KT FEW008 OVC011 02/01 A3000 RMK AO1 SLP175
SPECI CYNL 041402Z AUTO 33012G20KT OVC010 02/01 A3000 RMK AO1 SLP174
METAR CYNL 041400Z AUTO 33012G20KT OVC009 02/01 A3000 RMK AO1 SLP174
SPECI CYNL 041343Z AUTO 33012G21KT BKN009 OVC013 02/01 A2999 RMK AO1 SLP172
SPECI CYNL 041338Z AUTO 33013G21KT BKN010 OVC013 02/01 A2999 RMK AO1 SLP172
SPECI CYNL 041314Z AUTO 32013G23KT BKN009 BKN013 03/01 A2999 RMK AO1 SLP170
SPECI CYNL 041313Z AUTO 32014G23KT SCT009 BKN013 03/01 A2999 RMK AO1 SLP170
SPECI CYNL 041311Z AUTO 33011G21KT BKN008 BKN013 03/02 A2999 RMK AO1 SLP170
METAR CYNL 041300Z AUTO 33010G20KT SCT008 BKN010 03/02 A2998 RMK AO1 SLP168
SPECI CYNL 041257Z AUTO 32007G17KT SCT008 BKN011 03/02 A2998 RMK AO1 PRESRR SLP163
SPECI CYNL 041251Z AUTO 33009G20KT BKN009 03/02 A2998 RMK AO1 PRESRR SLP162
SPECI CYNL 041250Z AUTO 33008G20KT SCT009 BKN012 03/02 A2998 RMK AO1 PRESRR SLP162
SPECI CYNL 041247Z AUTO 32012G20KT BKN009 03/02 A2998 RMK AO1 PRESRR SLP162
SPECI CYNL 041245Z AUTO 33011G20KT SCT009 BKN011 03/02 A2998 RMK AO1 PRESRR SLP161
SPECI CYNL 041242Z AUTO 33012G20KT BKN009 BKN014 03/02 A2998 RMK AO1 PRESRR SLP161
SPECI CYNL 041239Z AUTO 33013G20KT SCT009 BKN010 BKN014 03/02 A2998 RMK AO1 PRESRR SLP161
SPECI CYNL 041226Z AUTO 32012G19KT BKN009 BKN014 03/02 A2997 RMK AO1 PRESRR SLP159
SPECI CYNL 041212Z AUTO 33012G21KT FEW008 SCT010 BKN014 03/02 A2997 RMK AO1 PRESRR SLP158
SPECI CYNL 041211Z AUTO 33012G21KT FEW008 SCT012 BKN016 03/02 A2997 RMK AO1 PRESRR SLP157
METAR CYNL 041200Z AUTO 33013G23KT FEW008 SCT012 BKN014 03/02 A2996 RMK AO1 PRESRR SLP156
SPECI CYNL 041158Z AUTO 33013G23KT FEW008 BKN013 03/02 A2996 RMK AO1 PRESRR SLP154
SPECI CYNL 041156Z AUTO 33014G23KT FEW008 SCT012 03/02 A2996 RMK AO1 PRESRR SLP153
SPECI CYNL 041141Z AUTO 33011G22KT FEW008 BKN012 03/02 A2996 RMK AO1 PRESRR SLP151
SPECI CYNL 041133Z AUTO 34013G23KT FEW006 SCT009 BKN016 04/02 A2995 RMK AO1 PRESRR SLP150
SPECI CYNL 041129Z AUTO 33015G23KT FEW005 SCT008 BKN010 04/02 A2995 RMK AO1 PRESRR SLP150
SPECI CYNL 041127Z AUTO 34017G23KT FEW006 BKN009 BKN014 04/02 A2995 RMK AO1 PRESRR SLP149
SPECI CYNL 041126Z AUTO 34015G22KT SCT006 BKN010 BKN017 04/02 A2995 RMK AO1 PRESRR SLP149
METAR CYNL 041100Z AUTO 32012G20KT SCT007 BKN009 BKN014 04/04 A2994 RMK AO1 PRESRR SLP143
SPECI CYNL 041058Z AUTO 32012G18KT SCT007 BKN009 BKN014 05/04 A2994 RMK AO1 PRESRR SLP142
SPECI CYNL 041054Z AUTO 33011G23KT SCT008 BKN013 OVC018 05/04 A2993 RMK AO1 PRESRR SLP142
SPECI CYNL 041053Z AUTO 33011G23KT BKN008 OVC018 05/04 A2993 RMK AO1 PRESRR SLP142
SPECI CYNL 041052Z AUTO 33011G23KT SCT008 BKN013 OVC018 05/04 A2993 RMK AO1 PRESRR SLP142
METAR CYNL 041000Z AUTO 32010G19KT BKN006 OVC012 06/05 A2991 RMK AO1 PRESRR SLP134
METAR CYNL 040900Z AUTO 32011G18KT FEW005 BKN007 BKN012 06/06 A2989 RMK AO1 SLP125
SPECI CYNL 040837Z AUTO 32011KT BKN006 OVC026 08/07 A2989 RMK AO1 SLP121
SPECI CYNL 040830Z AUTO 28004KT FEW006 SCT010 BKN018 08/07 A2988 RMK AO1 SLP120
SPECI CYNL 040820Z AUTO 28004KT FEW007 BKN028 OVC038 08/07 A2988 RMK AO1 SLP120
SPECI CYNL 040819Z AUTO 29004KT VV024 08/07 A2988 RMK AO1 SLP120
SPECI CYNL 040812Z AUTO 30005KT BKN029 OVC038 08/07 A2988 RMK AO1 SLP120
SPECI CYNL 040805Z AUTO 31004KT FEW018 BKN030 OVC038 08/07 A2988 RMK AO1 SLP119
SPECI CYNL 040802Z AUTO 31004KT VV029 08/07 A2988 RMK AO1 SLP119
METAR CYNL 040800Z AUTO 30005KT VV030 08/07 A2988 RMK AO1 SLP118
SPECI CYNL 040744Z AUTO 32006KT VV030 08/07 A2988 RMK AO1 SLP119
SPECI CYNL 040742Z AUTO 32006KT VV028 08/07 A2988 RMK AO1 SLP119
SPECI CYNL 040741Z AUTO 32005KT SCT006 OVC033 08/07 A2988 RMK AO1 SLP119
SPECI CYNL 040739Z AUTO 33005KT SCT006 BKN020 OVC033 08/07 A2988 RMK AO1 SLP119
SPECI CYNL 040734Z AUTO 33003KT SCT006 BKN009 OVC034 08/07 A2988 RMK AO1 SLP120
SPECI CYNL 040725Z AUTO 32004KT FEW007 OVC034 08/07 A2988 RMK AO1 SLP121
SPECI CYNL 040723Z AUTO 31004KT VV028 08/07 A2988 RMK AO1 SLP121
METAR CYNL 040700Z AUTO 31005KT VV034 08/07 A2989 RMK AO1 SLP123
SPECI CYNL 040658Z AUTO 31005KT VV034 08/07 A2989 RMK AO1 SLP124
SPECI CYNL 040636Z AUTO 29003KT SCT006 BKN009 OVC026 08/08 A2989 RMK AO1 SLP125
SPECI CYNL 040635Z AUTO 30003KT SCT007 BKN010 OVC026 08/08 A2989 RMK AO1 SLP125
SPECI CYNL 040634Z AUTO 33003KT BKN008 OVC026 08/08 A2989 RMK AO1 SLP125
SPECI CYNL 040633Z AUTO 00000KT FEW007 BKN010 OVC026 08/08 A2989 RMK AO1 SLP125
SPECI CYNL 040627Z AUTO 33004KT BKN009 OVC026 08/08 A2989 RMK AO1 SLP125
SPECI CYNL 040623Z AUTO 34005KT SCT009 BKN012 BKN026 08/08 A2989 RMK AO1 SLP124
SPECI CYNL 040611Z AUTO 32005KT SCT009 BKN025 BKN033 08/08 A2989 RMK AO1 SLP125
SPECI CYNL 040607Z AUTO 32004KT SCT009 BKN023 BKN032 08/08 A2989 RMK AO1 SLP125
METAR CYNL 040600Z AUTO 32006KT FEW011 SCT017 BKN032 08/08 A2989 RMK AO1 SLP125
METAR CYNL 040500Z AUTO 33007KT FEW011 BKN039 OVC050 08/08 A2989 RMK AO1 SLP124
SPECI CYNL 040449Z AUTO 32008KT FEW008 SCT013 OVC040 09/08 A2989 RMK AO1 SLP126
SPECI CYNL 040439Z AUTO 32005KT VV030 09/08 A2990 RMK AO1 SLP127
SPECI CYNL 040436Z AUTO 31005KT VV028 09/08 A2990 RMK AO1 SLP127
SPECI CYNL 040435Z AUTO 31005KT SCT010 BKN024 BKN031 09/08 A2990 RMK AO1 SLP128
SPECI CYNL 040432Z AUTO 31004KT FEW008 SCT013 BKN031 09/08 A2990 RMK AO1 SLP128
SPECI CYNL 040428Z AUTO 30005KT FEW008 BKN013 BKN046 09/08 A2990 RMK AO1 SLP128
SPECI CYNL 040427Z AUTO 30004KT SCT010 BKN015 BKN047 09/08 A2990 RMK AO1 SLP128
SPECI CYNL 040426Z AUTO 30003KT FEW008 BKN012 BKN046 09/08 A2990 RMK AO1 SLP128
SPECI CYNL 040417Z AUTO 30002KT FEW009 SCT034 OVC050 09/08 A2990 RMK AO1 SLP128
METAR CYNL 040400Z AUTO 00004KT OVC049 09/08 A2989 RMK AO1 SLP125
METAR CYNL 040300Z AUTO 32006KT BKN064 09/08 A2989 RMK AO1 SLP125
METAR CYNL 040200Z AUTO 33006KT 10/09 A2989 RMK AO1 PRESRR SLP127
SPECI CYNL 040130Z AUTO 26011G19KT FEW008 BKN041 OVC054 10/08 A2990 RMK AO1 SLP134
SPECI CYNL 040124Z AUTO 26011G24KT VV030 10/08 A2989 RMK AO1 SLP131
SPECI CYNL 040123Z AUTO 27013G24KT VV026 10/09 A2989 RMK AO1 SLP130
SPECI CYNL 040121Z AUTO 27014G24KT VV020 10/09 A2988 RMK AO1 SLP128
SPECI CYNL 040118Z AUTO 27018G24KT FEW008 OVC056 11/09 A2988 RMK AO1 SLP125
METAR CYNL 040100Z AUTO 28003KT BKN056 14/07 A2986 RMK AO1 SLP115
METAR CYNL 040000Z AUTO 00000KT 16/03 A2986 RMK AO1 SLP115
METAR CYNL 032300Z AUTO 23003KT BKN078 17/02 A2987 RMK AO1 SLP117
METAR CYNL 032200Z AUTO 19006KT FEW064 17/02 A2987 RMK AO1 SLP119
METAR CYNL 032100Z AUTO 20006KT FEW060 17/02 A2988 RMK AO1 SLP122
METAR CYNL 032000Z AUTO 23005KT SCT056 16/02 A2989 RMK AO1 SLP125
METAR CYNL 031900Z AUTO 23008KT FEW052 16/02 A2989 RMK AO1 SLP124
METAR CYNL 031800Z AUTO 20009KT FEW049 15/04 A2990 RMK AO1 SLP127
METAR CYNL 031700Z AUTO 20006KT CLR 14/04 A2991 RMK AO1 SLP131
METAR CYNL 031600Z AUTO 18006KT CLR 14/06 A2991 RMK AO1 SLP132
METAR CYNL 031500Z AUTO 17003KT CLR 12/07 A2991 RMK AO1 SLP134
METAR CYNL 031400Z AUTO 18003KT FEW003 08/08 A2991 RMK AO1 SLP136
SPECI CYNL 031354Z AUTO 20002KT FEW003 08/07 A2991 RMK AO1 SLP137
METAR CYNL 031300Z AUTO 21002KT BKN064 07/06 A2990 RMK AO1 SLP134
METAR CYNL 031200Z AUTO 22004KT OVC064 06/06 A2989 RMK AO1 SLP131
METAR CYNL 031100Z AUTO 24004KT CLR 06/06 A2989 RMK AO1 SLP129
METAR CYNL 031000Z AUTO 24003KT CLR 07/06 A2988 RMK AO1 SLP124
METAR CYNL 030900Z AUTO 22002KT CLR 07/06 A2987 RMK AO1 SLP121
METAR CYNL 030800Z AUTO 28004KT OVC060 09/07 A2985 RMK AO1 SLP116
METAR CYNL 030700Z AUTO 28005KT FEW022 OVC058 09/07 A2985 RMK AO1 SLP115
SPECI CYNL 030618Z AUTO 26005KT SCT020 OVC060 09/07 A2984 RMK AO1 SLP113
METAR CYNL 030600Z AUTO 27005KT BKN019 OVC062 09/07 A2984 RMK AO1 SLP114
METAR CYNL 030500Z AUTO 26004KT FEW010 BKN020 OVC054 09/08 A2983 RMK AO1 SLP111
SPECI CYNL 030422Z AUTO 27006KT FEW012 SCT019 BKN024 10/08 A2982 RMK AO1 SLP109
METAR CYNL 030400Z AUTO 28006KT SCT013 OVC052 10/08 A2982 RMK AO1 SLP108
SPECI CYNL 030351Z AUTO 28007KT SCT013 BKN052 10/08 A2982 RMK AO1 PRESRR SLP107
SPECI CYNL 030349Z AUTO 28006KT SCT013 BKN023 BKN052 10/08 A2982 RMK AO1 PRESRR SLP106
SPECI CYNL 030341Z AUTO 28007KT BKN013 10/08 A2982 RMK AO1 PRESRR SLP106
SPECI CYNL 030330Z AUTO 28007KT SCT014 BKN023 10/08 A2981 RMK AO1 PRESRR SLP105
METAR CYNL 030300Z AUTO 28006KT FEW011 OVC047 10/08 A2980 RMK AO1 PRESRR SLP101
SPECI CYNL 030246Z AUTO 27007KT FEW011 SCT015 OVC046 10/08 A2980 RMK AO1 PRESRR SLP099
SPECI CYNL 030241Z AUTO 27008KT FEW011 SCT015 BKN027 10/08 A2979 RMK AO1 PRESRR SLP098
SPECI CYNL 030228Z AUTO 28006KT SCT014 BKN021 BKN027 10/08 A2979 RMK AO1 PRESRR SLP097
SPECI CYNL 030226Z AUTO 28007KT SCT014 BKN025 10/08 A2979 RMK AO1 PRESRR SLP097
SPECI CYNL 030225Z AUTO 28008KT SCT014 BKN023 10/08 A2979 RMK AO1 PRESRR SLP097
SPECI CYNL 030220Z AUTO 28006KT SCT015 BKN027 10/08 A2979 RMK AO1 PRESRR SLP096
SPECI CYNL 030217Z AUTO 28005KT SCT015 BKN023 10/08 A2978 RMK AO1 PRESRR SLP095
METAR CYNL 030200Z AUTO 27008KT FEW015 SCT025 10/08 A2978 RMK AO1 PRESRR SLP093
SPECI CYNL 030149Z AUTO 28007KT FEW014 SCT026 BKN035 11/08 A2977 RMK AO1 SLP092
SPECI CYNL 030137Z AUTO 27007KT FEW018 BKN026 11/08 A2977 RMK AO1 SLP089
METAR CYNL 030100Z AUTO 28006KT BKN054 11/08 A2975 RMK AO1 SLP084
METAR CYNL 030000Z AUTO 28006KT FEW009 BKN041 11/09 A2975 RMK AO1 PRESRR SLP081